<?xml version="1.0" encoding="UTF-8" standalone="no" ?>
<gpx xmlns="http://www.topografix.com/GPX/1/1" xmlns:xsi="http://www.w3.org/2001/XMLSchema-instance" xsi:schemaLocation="http://www.topografix.com/GPX/1/1 http://www.topografix.com/GPX/1/1/gpx.xsd" version="1.1" creator="VisuGPX - https://www.visugpx.com">
  <metadata>
    <name>Variante Mens / Menée</name>
    <desc><![CDATA[Variante entre Mens et le col de Menée par le col de Mens]]></desc>
  </metadata>
  <wpt lat="44.81696" lon="5.75059">
    <ele>778</ele>
    <name><![CDATA[Variante Mens / Menée]]></name>
    <type><![CDATA[Generic]]></type>
  </wpt>
  <trk>
    <name><![CDATA[Variante Mens / Menée on edp-parcours.com]]></name>
    <trkseg>
      <trkpt lat="44.81696" lon="5.75059">
        <ele>778</ele>
        <time>2017-05-03T14:57:52Z</time>
      </trkpt>
      <trkpt lat="44.81703" lon="5.75082">
        <ele>778</ele>
        <time>2017-05-03T14:58:11Z</time>
      </trkpt>
      <trkpt lat="44.81721" lon="5.75168">
        <ele>781</ele>
        <time>2017-05-03T14:58:23Z</time>
      </trkpt>
      <trkpt lat="44.81722" lon="5.75185">
        <ele>781</ele>
        <time>2017-05-03T14:58:43Z</time>
      </trkpt>
      <trkpt lat="44.81729" lon="5.75208">
        <ele>782</ele>
        <time>2017-05-03T14:58:53Z</time>
      </trkpt>
      <trkpt lat="44.81759" lon="5.75298">
        <ele>784</ele>
        <time>2017-05-03T14:59:13Z</time>
      </trkpt>
      <trkpt lat="44.81772" lon="5.75334">
        <ele>785</ele>
        <time>2017-05-03T14:59:31Z</time>
      </trkpt>
      <trkpt lat="44.81791" lon="5.75374">
        <ele>785</ele>
        <time>2017-05-03T14:59:51Z</time>
      </trkpt>
      <trkpt lat="44.81799" lon="5.7539">
        <ele>786</ele>
        <time>2017-05-03T15:00:09Z</time>
      </trkpt>
      <trkpt lat="44.81805" lon="5.75407">
        <ele>786</ele>
        <time>2017-05-03T15:00:23Z</time>
      </trkpt>
      <trkpt lat="44.81809" lon="5.75451">
        <ele>788</ele>
        <time>2017-05-03T15:00:41Z</time>
      </trkpt>
      <trkpt lat="44.81809" lon="5.75481">
        <ele>788</ele>
        <time>2017-05-03T15:00:56Z</time>
      </trkpt>
      <trkpt lat="44.81805" lon="5.7551">
        <ele>790</ele>
        <time>2017-05-03T15:00:59Z</time>
      </trkpt>
      <trkpt lat="44.81791" lon="5.75603">
        <ele>792</ele>
        <time>2017-05-03T15:01:19Z</time>
      </trkpt>
      <trkpt lat="44.81784" lon="5.75658">
        <ele>793</ele>
        <time>2017-05-03T15:01:23Z</time>
      </trkpt>
      <trkpt lat="44.81777" lon="5.75692">
        <ele>794</ele>
        <time>2017-05-03T15:01:27Z</time>
      </trkpt>
      <trkpt lat="44.8177" lon="5.75707">
        <ele>794</ele>
        <time>2017-05-03T15:01:45Z</time>
      </trkpt>
      <trkpt lat="44.81757" lon="5.7577">
        <ele>796</ele>
        <time>2017-05-03T15:02:01Z</time>
      </trkpt>
      <trkpt lat="44.8175" lon="5.75809">
        <ele>797</ele>
        <time>2017-05-03T15:02:04Z</time>
      </trkpt>
      <trkpt lat="44.81749" lon="5.75891">
        <ele>800</ele>
        <time>2017-05-03T15:02:14Z</time>
      </trkpt>
      <trkpt lat="44.81749" lon="5.75907">
        <ele>801</ele>
        <time>2017-05-03T15:02:29Z</time>
      </trkpt>
      <trkpt lat="44.81749" lon="5.75913">
        <ele>801</ele>
        <time>2017-05-03T15:02:35Z</time>
      </trkpt>
      <trkpt lat="44.81737" lon="5.75926">
        <ele>802</ele>
        <time>2017-05-03T15:02:54Z</time>
      </trkpt>
      <trkpt lat="44.81699" lon="5.75958">
        <ele>804</ele>
        <time>2017-05-03T15:03:01Z</time>
      </trkpt>
      <trkpt lat="44.81683" lon="5.75969">
        <ele>805</ele>
        <time>2017-05-03T15:03:08Z</time>
      </trkpt>
      <trkpt lat="44.81676" lon="5.7597">
        <ele>805</ele>
        <time>2017-05-03T15:03:20Z</time>
      </trkpt>
      <trkpt lat="44.81646" lon="5.75986">
        <ele>809</ele>
        <time>2017-05-03T15:03:23Z</time>
      </trkpt>
      <trkpt lat="44.81594" lon="5.76">
        <ele>813</ele>
        <time>2017-05-03T15:03:33Z</time>
      </trkpt>
      <trkpt lat="44.8158" lon="5.7601">
        <ele>818</ele>
        <time>2017-05-03T15:03:53Z</time>
      </trkpt>
      <trkpt lat="44.81565" lon="5.76037">
        <ele>822</ele>
        <time>2017-05-03T15:04:06Z</time>
      </trkpt>
      <trkpt lat="44.81534" lon="5.76084">
        <ele>830</ele>
        <time>2017-05-03T15:04:24Z</time>
      </trkpt>
      <trkpt lat="44.81518" lon="5.76112">
        <ele>831</ele>
        <time>2017-05-03T15:04:26Z</time>
      </trkpt>
      <trkpt lat="44.81503" lon="5.76132">
        <ele>833</ele>
        <time>2017-05-03T15:04:28Z</time>
      </trkpt>
      <trkpt lat="44.81479" lon="5.76161">
        <ele>839</ele>
        <time>2017-05-03T15:04:37Z</time>
      </trkpt>
      <trkpt lat="44.8147" lon="5.76175">
        <ele>843</ele>
        <time>2017-05-03T15:04:55Z</time>
      </trkpt>
      <trkpt lat="44.81462" lon="5.76183">
        <ele>843</ele>
        <time>2017-05-03T15:05:02Z</time>
      </trkpt>
      <trkpt lat="44.81448" lon="5.76195">
        <ele>844</ele>
        <time>2017-05-03T15:05:15Z</time>
      </trkpt>
      <trkpt lat="44.81435" lon="5.76206">
        <ele>845</ele>
        <time>2017-05-03T15:05:25Z</time>
      </trkpt>
      <trkpt lat="44.81424" lon="5.76212">
        <ele>846</ele>
        <time>2017-05-03T15:05:42Z</time>
      </trkpt>
      <trkpt lat="44.8141" lon="5.76211">
        <ele>851</ele>
        <time>2017-05-03T15:05:50Z</time>
      </trkpt>
      <trkpt lat="44.81397" lon="5.76208">
        <ele>851</ele>
        <time>2017-05-03T15:06:01Z</time>
      </trkpt>
      <trkpt lat="44.8138" lon="5.76206">
        <ele>852</ele>
        <time>2017-05-03T15:06:19Z</time>
      </trkpt>
      <trkpt lat="44.81363" lon="5.76209">
        <ele>853</ele>
        <time>2017-05-03T15:06:33Z</time>
      </trkpt>
      <trkpt lat="44.81345" lon="5.76218">
        <ele>854</ele>
        <time>2017-05-03T15:06:49Z</time>
      </trkpt>
      <trkpt lat="44.81327" lon="5.76227">
        <ele>860</ele>
        <time>2017-05-03T15:07:02Z</time>
      </trkpt>
      <trkpt lat="44.81312" lon="5.76231">
        <ele>861</ele>
        <time>2017-05-03T15:07:17Z</time>
      </trkpt>
      <trkpt lat="44.81299" lon="5.76232">
        <ele>861</ele>
        <time>2017-05-03T15:07:34Z</time>
      </trkpt>
      <trkpt lat="44.81274" lon="5.76242">
        <ele>863</ele>
        <time>2017-05-03T15:07:39Z</time>
      </trkpt>
      <trkpt lat="44.81262" lon="5.76246">
        <ele>865</ele>
        <time>2017-05-03T15:07:42Z</time>
      </trkpt>
      <trkpt lat="44.81251" lon="5.76246">
        <ele>867</ele>
        <time>2017-05-03T15:07:53Z</time>
      </trkpt>
      <trkpt lat="44.81235" lon="5.7625">
        <ele>872</ele>
        <time>2017-05-03T15:07:57Z</time>
      </trkpt>
      <trkpt lat="44.81224" lon="5.76254">
        <ele>874</ele>
        <time>2017-05-03T15:08:04Z</time>
      </trkpt>
      <trkpt lat="44.81191" lon="5.76258">
        <ele>877</ele>
        <time>2017-05-03T15:08:23Z</time>
      </trkpt>
      <trkpt lat="44.81173" lon="5.76268">
        <ele>878</ele>
        <time>2017-05-03T15:08:25Z</time>
      </trkpt>
      <trkpt lat="44.81154" lon="5.76286">
        <ele>887</ele>
        <time>2017-05-03T15:08:29Z</time>
      </trkpt>
      <trkpt lat="44.81127" lon="5.7631">
        <ele>890</ele>
        <time>2017-05-03T15:08:44Z</time>
      </trkpt>
      <trkpt lat="44.81112" lon="5.76329">
        <ele>893</ele>
        <time>2017-05-03T15:08:57Z</time>
      </trkpt>
      <trkpt lat="44.81094" lon="5.76358">
        <ele>898</ele>
        <time>2017-05-03T15:09:05Z</time>
      </trkpt>
      <trkpt lat="44.81081" lon="5.76373">
        <ele>905</ele>
        <time>2017-05-03T15:09:24Z</time>
      </trkpt>
      <trkpt lat="44.81061" lon="5.76393">
        <ele>906</ele>
        <time>2017-05-03T15:09:34Z</time>
      </trkpt>
      <trkpt lat="44.81038" lon="5.76419">
        <ele>910</ele>
        <time>2017-05-03T15:09:54Z</time>
      </trkpt>
      <trkpt lat="44.81029" lon="5.76436">
        <ele>911</ele>
        <time>2017-05-03T15:10:12Z</time>
      </trkpt>
      <trkpt lat="44.81024" lon="5.7644">
        <ele>911</ele>
        <time>2017-05-03T15:10:28Z</time>
      </trkpt>
      <trkpt lat="44.80993" lon="5.76467">
        <ele>913</ele>
        <time>2017-05-03T15:10:31Z</time>
      </trkpt>
      <trkpt lat="44.8096" lon="5.76505">
        <ele>916</ele>
        <time>2017-05-03T15:10:44Z</time>
      </trkpt>
      <trkpt lat="44.8092" lon="5.76551">
        <ele>916</ele>
        <time>2017-05-03T15:10:58Z</time>
      </trkpt>
      <trkpt lat="44.80879" lon="5.76593">
        <ele>917</ele>
        <time>2017-05-03T15:11:11Z</time>
      </trkpt>
      <trkpt lat="44.80864" lon="5.76608">
        <ele>917</ele>
        <time>2017-05-03T15:11:16Z</time>
      </trkpt>
      <trkpt lat="44.80853" lon="5.76625">
        <ele>918</ele>
        <time>2017-05-03T15:11:24Z</time>
      </trkpt>
      <trkpt lat="44.80837" lon="5.76645">
        <ele>918</ele>
        <time>2017-05-03T15:11:44Z</time>
      </trkpt>
      <trkpt lat="44.80813" lon="5.76662">
        <ele>917</ele>
        <time>2017-05-03T15:11:56Z</time>
      </trkpt>
      <trkpt lat="44.8079" lon="5.76677">
        <ele>921</ele>
        <time>2017-05-03T15:12:05Z</time>
      </trkpt>
      <trkpt lat="44.80781" lon="5.76679">
        <ele>921</ele>
        <time>2017-05-03T15:12:07Z</time>
      </trkpt>
      <trkpt lat="44.80779" lon="5.76683">
        <ele>921</ele>
        <time>2017-05-03T15:12:22Z</time>
      </trkpt>
      <trkpt lat="44.80764" lon="5.76704">
        <ele>922</ele>
        <time>2017-05-03T15:12:36Z</time>
      </trkpt>
      <trkpt lat="44.80736" lon="5.76737">
        <ele>923</ele>
        <time>2017-05-03T15:12:42Z</time>
      </trkpt>
      <trkpt lat="44.80724" lon="5.76747">
        <ele>923</ele>
        <time>2017-05-03T15:12:51Z</time>
      </trkpt>
      <trkpt lat="44.80686" lon="5.76776">
        <ele>928</ele>
        <time>2017-05-03T15:13:10Z</time>
      </trkpt>
      <trkpt lat="44.80658" lon="5.76792">
        <ele>927</ele>
        <time>2017-05-03T15:13:12Z</time>
      </trkpt>
      <trkpt lat="44.8065" lon="5.768">
        <ele>927</ele>
        <time>2017-05-03T15:13:21Z</time>
      </trkpt>
      <trkpt lat="44.80633" lon="5.7682">
        <ele>927</ele>
        <time>2017-05-03T15:13:30Z</time>
      </trkpt>
      <trkpt lat="44.80617" lon="5.76847">
        <ele>931</ele>
        <time>2017-05-03T15:13:44Z</time>
      </trkpt>
      <trkpt lat="44.80603" lon="5.76866">
        <ele>931</ele>
        <time>2017-05-03T15:13:53Z</time>
      </trkpt>
      <trkpt lat="44.80603" lon="5.76874">
        <ele>932</ele>
        <time>2017-05-03T15:14:00Z</time>
      </trkpt>
      <trkpt lat="44.8061" lon="5.76901">
        <ele>933</ele>
        <time>2017-05-03T15:14:03Z</time>
      </trkpt>
      <trkpt lat="44.80616" lon="5.76936">
        <ele>938</ele>
        <time>2017-05-03T15:14:20Z</time>
      </trkpt>
      <trkpt lat="44.80618" lon="5.76946">
        <ele>939</ele>
        <time>2017-05-03T15:14:31Z</time>
      </trkpt>
      <trkpt lat="44.80615" lon="5.76955">
        <ele>939</ele>
        <time>2017-05-03T15:14:40Z</time>
      </trkpt>
      <trkpt lat="44.80607" lon="5.76972">
        <ele>940</ele>
        <time>2017-05-03T15:14:43Z</time>
      </trkpt>
      <trkpt lat="44.80604" lon="5.76971">
        <ele>940</ele>
        <time>2017-05-03T15:14:56Z</time>
      </trkpt>
      <trkpt lat="44.80596" lon="5.76972">
        <ele>940</ele>
        <time>2017-05-03T15:14:59Z</time>
      </trkpt>
      <trkpt lat="44.80579" lon="5.76983">
        <ele>937</ele>
        <time>2017-05-03T15:15:09Z</time>
      </trkpt>
      <trkpt lat="44.8056" lon="5.77008">
        <ele>941</ele>
        <time>2017-05-03T15:15:15Z</time>
      </trkpt>
      <trkpt lat="44.80545" lon="5.77035">
        <ele>941</ele>
        <time>2017-05-03T15:15:17Z</time>
      </trkpt>
      <trkpt lat="44.80522" lon="5.77063">
        <ele>941</ele>
        <time>2017-05-03T15:15:27Z</time>
      </trkpt>
      <trkpt lat="44.80486" lon="5.77098">
        <ele>939</ele>
        <time>2017-05-03T15:15:38Z</time>
      </trkpt>
      <trkpt lat="44.80463" lon="5.77117">
        <ele>938</ele>
        <time>2017-05-03T15:15:57Z</time>
      </trkpt>
      <trkpt lat="44.80452" lon="5.77127">
        <ele>937</ele>
        <time>2017-05-03T15:16:09Z</time>
      </trkpt>
      <trkpt lat="44.80433" lon="5.77151">
        <ele>936</ele>
        <time>2017-05-03T15:16:13Z</time>
      </trkpt>
      <trkpt lat="44.80404" lon="5.77196">
        <ele>933</ele>
        <time>2017-05-03T15:16:15Z</time>
      </trkpt>
      <trkpt lat="44.80379" lon="5.77228">
        <ele>933</ele>
        <time>2017-05-03T15:16:20Z</time>
      </trkpt>
      <trkpt lat="44.80352" lon="5.77254">
        <ele>936</ele>
        <time>2017-05-03T15:16:35Z</time>
      </trkpt>
      <trkpt lat="44.8032" lon="5.77284">
        <ele>932</ele>
        <time>2017-05-03T15:16:38Z</time>
      </trkpt>
      <trkpt lat="44.80301" lon="5.77306">
        <ele>932</ele>
        <time>2017-05-03T15:16:51Z</time>
      </trkpt>
      <trkpt lat="44.80286" lon="5.77329">
        <ele>932</ele>
        <time>2017-05-03T15:17:06Z</time>
      </trkpt>
      <trkpt lat="44.80271" lon="5.77342">
        <ele>935</ele>
        <time>2017-05-03T15:17:19Z</time>
      </trkpt>
      <trkpt lat="44.80257" lon="5.77352">
        <ele>935</ele>
        <time>2017-05-03T15:17:32Z</time>
      </trkpt>
      <trkpt lat="44.80231" lon="5.77376">
        <ele>936</ele>
        <time>2017-05-03T15:17:46Z</time>
      </trkpt>
      <trkpt lat="44.80214" lon="5.77392">
        <ele>937</ele>
        <time>2017-05-03T15:17:50Z</time>
      </trkpt>
      <trkpt lat="44.80192" lon="5.77408">
        <ele>938</ele>
        <time>2017-05-03T15:18:01Z</time>
      </trkpt>
      <trkpt lat="44.80179" lon="5.77419">
        <ele>942</ele>
        <time>2017-05-03T15:18:14Z</time>
      </trkpt>
      <trkpt lat="44.8017" lon="5.77436">
        <ele>942</ele>
        <time>2017-05-03T15:18:17Z</time>
      </trkpt>
      <trkpt lat="44.80157" lon="5.77454">
        <ele>945</ele>
        <time>2017-05-03T15:18:32Z</time>
      </trkpt>
      <trkpt lat="44.80137" lon="5.77473">
        <ele>947</ele>
        <time>2017-05-03T15:18:39Z</time>
      </trkpt>
      <trkpt lat="44.80122" lon="5.7749">
        <ele>948</ele>
        <time>2017-05-03T15:18:46Z</time>
      </trkpt>
      <trkpt lat="44.8012" lon="5.77495">
        <ele>948</ele>
        <time>2017-05-03T15:18:50Z</time>
      </trkpt>
      <trkpt lat="44.80108" lon="5.77493">
        <ele>949</ele>
        <time>2017-05-03T15:18:53Z</time>
      </trkpt>
      <trkpt lat="44.80096" lon="5.77494">
        <ele>950</ele>
        <time>2017-05-03T15:19:05Z</time>
      </trkpt>
      <trkpt lat="44.80051" lon="5.77515">
        <ele>957</ele>
        <time>2017-05-03T15:19:08Z</time>
      </trkpt>
      <trkpt lat="44.80001" lon="5.77536">
        <ele>960</ele>
        <time>2017-05-03T15:19:15Z</time>
      </trkpt>
      <trkpt lat="44.79991" lon="5.77547">
        <ele>965</ele>
        <time>2017-05-03T15:19:29Z</time>
      </trkpt>
      <trkpt lat="44.79973" lon="5.77566">
        <ele>966</ele>
        <time>2017-05-03T15:19:31Z</time>
      </trkpt>
      <trkpt lat="44.79958" lon="5.77569">
        <ele>967</ele>
        <time>2017-05-03T15:19:49Z</time>
      </trkpt>
      <trkpt lat="44.79947" lon="5.7757">
        <ele>967</ele>
        <time>2017-05-03T15:19:57Z</time>
      </trkpt>
      <trkpt lat="44.79945" lon="5.77574">
        <ele>968</ele>
        <time>2017-05-03T15:20:04Z</time>
      </trkpt>
      <trkpt lat="44.79919" lon="5.77615">
        <ele>972</ele>
        <time>2017-05-03T15:20:07Z</time>
      </trkpt>
      <trkpt lat="44.7991" lon="5.77635">
        <ele>973</ele>
        <time>2017-05-03T15:20:12Z</time>
      </trkpt>
      <trkpt lat="44.79907" lon="5.77668">
        <ele>976</ele>
        <time>2017-05-03T15:20:16Z</time>
      </trkpt>
      <trkpt lat="44.79887" lon="5.77843">
        <ele>987</ele>
        <time>2017-05-03T15:20:31Z</time>
      </trkpt>
      <trkpt lat="44.79886" lon="5.77874">
        <ele>987</ele>
        <time>2017-05-03T15:20:33Z</time>
      </trkpt>
      <trkpt lat="44.79888" lon="5.779">
        <ele>989</ele>
        <time>2017-05-03T15:20:45Z</time>
      </trkpt>
      <trkpt lat="44.7988" lon="5.77948">
        <ele>994</ele>
        <time>2017-05-03T15:20:56Z</time>
      </trkpt>
      <trkpt lat="44.79883" lon="5.77983">
        <ele>997</ele>
        <time>2017-05-03T15:21:03Z</time>
      </trkpt>
      <trkpt lat="44.79868" lon="5.78023">
        <ele>1004</ele>
        <time>2017-05-03T15:21:17Z</time>
      </trkpt>
      <trkpt lat="44.79853" lon="5.78071">
        <ele>1006</ele>
        <time>2017-05-03T15:21:33Z</time>
      </trkpt>
      <trkpt lat="44.79849" lon="5.78117">
        <ele>1014</ele>
        <time>2017-05-03T15:21:45Z</time>
      </trkpt>
      <trkpt lat="44.79847" lon="5.78124">
        <ele>1015</ele>
        <time>2017-05-03T15:21:48Z</time>
      </trkpt>
      <trkpt lat="44.79839" lon="5.78125">
        <ele>1014</ele>
        <time>2017-05-03T15:22:04Z</time>
      </trkpt>
      <trkpt lat="44.79819" lon="5.78114">
        <ele>1008</ele>
        <time>2017-05-03T15:22:06Z</time>
      </trkpt>
      <trkpt lat="44.79804" lon="5.78102">
        <ele>1008</ele>
        <time>2017-05-03T15:22:19Z</time>
      </trkpt>
      <trkpt lat="44.79795" lon="5.781">
        <ele>1007</ele>
        <time>2017-05-03T15:22:27Z</time>
      </trkpt>
      <trkpt lat="44.79784" lon="5.78102">
        <ele>1007</ele>
        <time>2017-05-03T15:22:39Z</time>
      </trkpt>
      <trkpt lat="44.79767" lon="5.7812">
        <ele>1008</ele>
        <time>2017-05-03T15:22:49Z</time>
      </trkpt>
      <trkpt lat="44.79751" lon="5.78153">
        <ele>1011</ele>
        <time>2017-05-03T15:22:53Z</time>
      </trkpt>
      <trkpt lat="44.7974" lon="5.78212">
        <ele>1012</ele>
        <time>2017-05-03T15:23:07Z</time>
      </trkpt>
      <trkpt lat="44.79724" lon="5.78268">
        <ele>1018</ele>
        <time>2017-05-03T15:23:17Z</time>
      </trkpt>
      <trkpt lat="44.79721" lon="5.78284">
        <ele>1019</ele>
        <time>2017-05-03T15:23:35Z</time>
      </trkpt>
      <trkpt lat="44.79722" lon="5.78302">
        <ele>1020</ele>
        <time>2017-05-03T15:23:46Z</time>
      </trkpt>
      <trkpt lat="44.79716" lon="5.78317">
        <ele>1021</ele>
        <time>2017-05-03T15:23:59Z</time>
      </trkpt>
      <trkpt lat="44.7971" lon="5.78333">
        <ele>1021</ele>
        <time>2017-05-03T15:24:14Z</time>
      </trkpt>
      <trkpt lat="44.79705" lon="5.78356">
        <ele>1030</ele>
        <time>2017-05-03T15:24:16Z</time>
      </trkpt>
      <trkpt lat="44.79696" lon="5.78391">
        <ele>1034</ele>
        <time>2017-05-03T15:24:27Z</time>
      </trkpt>
      <trkpt lat="44.7967" lon="5.78417">
        <ele>1040</ele>
        <time>2017-05-03T15:24:39Z</time>
      </trkpt>
      <trkpt lat="44.79645" lon="5.78436">
        <ele>1049</ele>
        <time>2017-05-03T15:24:43Z</time>
      </trkpt>
      <trkpt lat="44.79632" lon="5.78441">
        <ele>1051</ele>
        <time>2017-05-03T15:24:54Z</time>
      </trkpt>
      <trkpt lat="44.79617" lon="5.78442">
        <ele>1052</ele>
        <time>2017-05-03T15:25:11Z</time>
      </trkpt>
      <trkpt lat="44.7958" lon="5.78432">
        <ele>1056</ele>
        <time>2017-05-03T15:25:19Z</time>
      </trkpt>
      <trkpt lat="44.79569" lon="5.78431">
        <ele>1057</ele>
        <time>2017-05-03T15:25:39Z</time>
      </trkpt>
      <trkpt lat="44.79563" lon="5.78434">
        <ele>1057</ele>
        <time>2017-05-03T15:25:47Z</time>
      </trkpt>
      <trkpt lat="44.79548" lon="5.78451">
        <ele>1059</ele>
        <time>2017-05-03T15:25:50Z</time>
      </trkpt>
      <trkpt lat="44.79525" lon="5.78507">
        <ele>1068</ele>
        <time>2017-05-03T15:26:07Z</time>
      </trkpt>
      <trkpt lat="44.79514" lon="5.78548">
        <ele>1070</ele>
        <time>2017-05-03T15:26:27Z</time>
      </trkpt>
      <trkpt lat="44.79513" lon="5.78567">
        <ele>1070</ele>
        <time>2017-05-03T15:26:45Z</time>
      </trkpt>
      <trkpt lat="44.79511" lon="5.78575">
        <ele>1070</ele>
        <time>2017-05-03T15:27:02Z</time>
      </trkpt>
      <trkpt lat="44.79514" lon="5.7858">
        <ele>1070</ele>
        <time>2017-05-03T15:27:10Z</time>
      </trkpt>
      <trkpt lat="44.79524" lon="5.78621">
        <ele>1075</ele>
        <time>2017-05-03T15:27:16Z</time>
      </trkpt>
      <trkpt lat="44.7953" lon="5.78661">
        <ele>1075</ele>
        <time>2017-05-03T15:27:24Z</time>
      </trkpt>
      <trkpt lat="44.79536" lon="5.78688">
        <ele>1076</ele>
        <time>2017-05-03T15:27:27Z</time>
      </trkpt>
      <trkpt lat="44.79554" lon="5.78727">
        <ele>1076</ele>
        <time>2017-05-03T15:27:43Z</time>
      </trkpt>
      <trkpt lat="44.79558" lon="5.78751">
        <ele>1076</ele>
        <time>2017-05-03T15:27:55Z</time>
      </trkpt>
      <trkpt lat="44.79561" lon="5.78793">
        <ele>1075</ele>
        <time>2017-05-03T15:28:01Z</time>
      </trkpt>
      <trkpt lat="44.79565" lon="5.78841">
        <ele>1071</ele>
        <time>2017-05-03T15:28:07Z</time>
      </trkpt>
      <trkpt lat="44.79569" lon="5.78855">
        <ele>1070</ele>
        <time>2017-05-03T15:28:18Z</time>
      </trkpt>
      <trkpt lat="44.7958" lon="5.78867">
        <ele>1069</ele>
        <time>2017-05-03T15:28:31Z</time>
      </trkpt>
      <trkpt lat="44.79622" lon="5.78891">
        <ele>1074</ele>
        <time>2017-05-03T15:28:45Z</time>
      </trkpt>
      <trkpt lat="44.79634" lon="5.78898">
        <ele>1075</ele>
        <time>2017-05-03T15:28:49Z</time>
      </trkpt>
      <trkpt lat="44.79642" lon="5.78909">
        <ele>1074</ele>
        <time>2017-05-03T15:29:03Z</time>
      </trkpt>
      <trkpt lat="44.79649" lon="5.78923">
        <ele>1068</ele>
        <time>2017-05-03T15:29:22Z</time>
      </trkpt>
      <trkpt lat="44.79658" lon="5.78969">
        <ele>1064</ele>
        <time>2017-05-03T15:29:26Z</time>
      </trkpt>
      <trkpt lat="44.79661" lon="5.7899">
        <ele>1063</ele>
        <time>2017-05-03T15:29:42Z</time>
      </trkpt>
      <trkpt lat="44.79659" lon="5.78999">
        <ele>1063</ele>
        <time>2017-05-03T15:29:46Z</time>
      </trkpt>
      <trkpt lat="44.79654" lon="5.79008">
        <ele>1059</ele>
        <time>2017-05-03T15:29:55Z</time>
      </trkpt>
      <trkpt lat="44.79642" lon="5.79023">
        <ele>1056</ele>
        <time>2017-05-03T15:30:11Z</time>
      </trkpt>
      <trkpt lat="44.79638" lon="5.79034">
        <ele>1055</ele>
        <time>2017-05-03T15:30:31Z</time>
      </trkpt>
      <trkpt lat="44.79637" lon="5.79057">
        <ele>1055</ele>
        <time>2017-05-03T15:30:48Z</time>
      </trkpt>
      <trkpt lat="44.79636" lon="5.79088">
        <ele>1052</ele>
        <time>2017-05-03T15:31:07Z</time>
      </trkpt>
      <trkpt lat="44.79639" lon="5.79115">
        <ele>1052</ele>
        <time>2017-05-03T15:31:24Z</time>
      </trkpt>
      <trkpt lat="44.79644" lon="5.79141">
        <ele>1051</ele>
        <time>2017-05-03T15:31:29Z</time>
      </trkpt>
      <trkpt lat="44.79654" lon="5.79171">
        <ele>1051</ele>
        <time>2017-05-03T15:31:47Z</time>
      </trkpt>
      <trkpt lat="44.79661" lon="5.79196">
        <ele>1050</ele>
        <time>2017-05-03T15:31:53Z</time>
      </trkpt>
      <trkpt lat="44.79664" lon="5.79219">
        <ele>1050</ele>
        <time>2017-05-03T15:32:06Z</time>
      </trkpt>
      <trkpt lat="44.79665" lon="5.79258">
        <ele>1052</ele>
        <time>2017-05-03T15:32:26Z</time>
      </trkpt>
      <trkpt lat="44.79657" lon="5.79265">
        <ele>1051</ele>
        <time>2017-05-03T15:32:30Z</time>
      </trkpt>
      <trkpt lat="44.7965" lon="5.79277">
        <ele>1050</ele>
        <time>2017-05-03T15:32:48Z</time>
      </trkpt>
      <trkpt lat="44.79642" lon="5.793">
        <ele>1050</ele>
        <time>2017-05-03T15:33:03Z</time>
      </trkpt>
      <trkpt lat="44.79628" lon="5.79352">
        <ele>1051</ele>
        <time>2017-05-03T15:33:15Z</time>
      </trkpt>
      <trkpt lat="44.79616" lon="5.79415">
        <ele>1051</ele>
        <time>2017-05-03T15:33:28Z</time>
      </trkpt>
      <trkpt lat="44.79614" lon="5.79427">
        <ele>1051</ele>
        <time>2017-05-03T15:33:43Z</time>
      </trkpt>
      <trkpt lat="44.7961" lon="5.79432">
        <ele>1051</ele>
        <time>2017-05-03T15:33:57Z</time>
      </trkpt>
      <trkpt lat="44.79605" lon="5.79435">
        <ele>1050</ele>
        <time>2017-05-03T15:34:09Z</time>
      </trkpt>
      <trkpt lat="44.79592" lon="5.79433">
        <ele>1049</ele>
        <time>2017-05-03T15:34:13Z</time>
      </trkpt>
      <trkpt lat="44.79561" lon="5.79417">
        <ele>1043</ele>
        <time>2017-05-03T15:34:17Z</time>
      </trkpt>
      <trkpt lat="44.79551" lon="5.79414">
        <ele>1043</ele>
        <time>2017-05-03T15:34:28Z</time>
      </trkpt>
      <trkpt lat="44.79546" lon="5.79416">
        <ele>1043</ele>
        <time>2017-05-03T15:34:37Z</time>
      </trkpt>
      <trkpt lat="44.79541" lon="5.79424">
        <ele>1041</ele>
        <time>2017-05-03T15:34:39Z</time>
      </trkpt>
      <trkpt lat="44.79539" lon="5.79441">
        <ele>1040</ele>
        <time>2017-05-03T15:34:53Z</time>
      </trkpt>
      <trkpt lat="44.79543" lon="5.7945">
        <ele>1040</ele>
        <time>2017-05-03T15:34:59Z</time>
      </trkpt>
      <trkpt lat="44.79567" lon="5.79484">
        <ele>1041</ele>
        <time>2017-05-03T15:35:15Z</time>
      </trkpt>
      <trkpt lat="44.79585" lon="5.79501">
        <ele>1043</ele>
        <time>2017-05-03T15:35:27Z</time>
      </trkpt>
      <trkpt lat="44.79587" lon="5.79513">
        <ele>1044</ele>
        <time>2017-05-03T15:35:40Z</time>
      </trkpt>
      <trkpt lat="44.79586" lon="5.79524">
        <ele>1045</ele>
        <time>2017-05-03T15:35:48Z</time>
      </trkpt>
      <trkpt lat="44.79583" lon="5.79532">
        <ele>1037</ele>
        <time>2017-05-03T15:35:55Z</time>
      </trkpt>
      <trkpt lat="44.79578" lon="5.79534">
        <ele>1037</ele>
        <time>2017-05-03T15:36:07Z</time>
      </trkpt>
      <trkpt lat="44.79564" lon="5.79531">
        <ele>1037</ele>
        <time>2017-05-03T15:36:18Z</time>
      </trkpt>
      <trkpt lat="44.79541" lon="5.79518">
        <ele>1035</ele>
        <time>2017-05-03T15:36:24Z</time>
      </trkpt>
      <trkpt lat="44.79511" lon="5.7951">
        <ele>1032</ele>
        <time>2017-05-03T15:36:30Z</time>
      </trkpt>
      <trkpt lat="44.7949" lon="5.79489">
        <ele>1027</ele>
        <time>2017-05-03T15:36:37Z</time>
      </trkpt>
      <trkpt lat="44.79479" lon="5.79479">
        <ele>1026</ele>
        <time>2017-05-03T15:36:51Z</time>
      </trkpt>
      <trkpt lat="44.79461" lon="5.79475">
        <ele>1025</ele>
        <time>2017-05-03T15:37:08Z</time>
      </trkpt>
      <trkpt lat="44.79447" lon="5.79474">
        <ele>1023</ele>
        <time>2017-05-03T15:37:24Z</time>
      </trkpt>
      <trkpt lat="44.79439" lon="5.79474">
        <ele>1022</ele>
        <time>2017-05-03T15:37:37Z</time>
      </trkpt>
      <trkpt lat="44.79434" lon="5.79477">
        <ele>1022</ele>
        <time>2017-05-03T15:37:43Z</time>
      </trkpt>
      <trkpt lat="44.79424" lon="5.79488">
        <ele>1019</ele>
        <time>2017-05-03T15:38:02Z</time>
      </trkpt>
      <trkpt lat="44.79414" lon="5.79497">
        <ele>1014</ele>
        <time>2017-05-03T15:38:13Z</time>
      </trkpt>
      <trkpt lat="44.7938" lon="5.79535">
        <ele>1014</ele>
        <time>2017-05-03T15:38:23Z</time>
      </trkpt>
      <trkpt lat="44.79363" lon="5.79546">
        <ele>1014</ele>
        <time>2017-05-03T15:38:37Z</time>
      </trkpt>
      <trkpt lat="44.79355" lon="5.79547">
        <ele>1014</ele>
        <time>2017-05-03T15:38:55Z</time>
      </trkpt>
      <trkpt lat="44.79349" lon="5.79547">
        <ele>1014</ele>
        <time>2017-05-03T15:39:03Z</time>
      </trkpt>
      <trkpt lat="44.79335" lon="5.79536">
        <ele>1013</ele>
        <time>2017-05-03T15:39:07Z</time>
      </trkpt>
      <trkpt lat="44.7932" lon="5.79514">
        <ele>1008</ele>
        <time>2017-05-03T15:39:09Z</time>
      </trkpt>
      <trkpt lat="44.79316" lon="5.79486">
        <ele>1005</ele>
        <time>2017-05-03T15:39:12Z</time>
      </trkpt>
      <trkpt lat="44.79318" lon="5.79456">
        <ele>1003</ele>
        <time>2017-05-03T15:39:26Z</time>
      </trkpt>
      <trkpt lat="44.79318" lon="5.79451">
        <ele>1003</ele>
        <time>2017-05-03T15:39:42Z</time>
      </trkpt>
      <trkpt lat="44.79316" lon="5.79441">
        <ele>1003</ele>
        <time>2017-05-03T15:40:00Z</time>
      </trkpt>
      <trkpt lat="44.79311" lon="5.7943">
        <ele>1003</ele>
        <time>2017-05-03T15:40:07Z</time>
      </trkpt>
      <trkpt lat="44.79309" lon="5.79418">
        <ele>1003</ele>
        <time>2017-05-03T15:40:27Z</time>
      </trkpt>
      <trkpt lat="44.79308" lon="5.79405">
        <ele>1000</ele>
        <time>2017-05-03T15:40:41Z</time>
      </trkpt>
      <trkpt lat="44.79312" lon="5.7939">
        <ele>1000</ele>
        <time>2017-05-03T15:40:43Z</time>
      </trkpt>
      <trkpt lat="44.79321" lon="5.79358">
        <ele>1000</ele>
        <time>2017-05-03T15:41:02Z</time>
      </trkpt>
      <trkpt lat="44.79325" lon="5.79315">
        <ele>998</ele>
        <time>2017-05-03T15:41:17Z</time>
      </trkpt>
      <trkpt lat="44.79327" lon="5.79267">
        <ele>997</ele>
        <time>2017-05-03T15:41:36Z</time>
      </trkpt>
      <trkpt lat="44.79328" lon="5.7926">
        <ele>998</ele>
        <time>2017-05-03T15:41:52Z</time>
      </trkpt>
      <trkpt lat="44.79345" lon="5.79224">
        <ele>1005</ele>
        <time>2017-05-03T15:42:07Z</time>
      </trkpt>
      <trkpt lat="44.79354" lon="5.79202">
        <ele>1007</ele>
        <time>2017-05-03T15:42:19Z</time>
      </trkpt>
      <trkpt lat="44.79354" lon="5.79191">
        <ele>1006</ele>
        <time>2017-05-03T15:42:37Z</time>
      </trkpt>
      <trkpt lat="44.79343" lon="5.79167">
        <ele>1003</ele>
        <time>2017-05-03T15:42:43Z</time>
      </trkpt>
      <trkpt lat="44.79333" lon="5.79137">
        <ele>999</ele>
        <time>2017-05-03T15:42:55Z</time>
      </trkpt>
      <trkpt lat="44.79331" lon="5.79127">
        <ele>999</ele>
        <time>2017-05-03T15:43:02Z</time>
      </trkpt>
      <trkpt lat="44.7933" lon="5.79085">
        <ele>1006</ele>
        <time>2017-05-03T15:43:14Z</time>
      </trkpt>
      <trkpt lat="44.79322" lon="5.79016">
        <ele>1004</ele>
        <time>2017-05-03T15:43:18Z</time>
      </trkpt>
      <trkpt lat="44.79327" lon="5.78986">
        <ele>1008</ele>
        <time>2017-05-03T15:43:25Z</time>
      </trkpt>
      <trkpt lat="44.7933" lon="5.78957">
        <ele>1009</ele>
        <time>2017-05-03T15:43:44Z</time>
      </trkpt>
      <trkpt lat="44.79329" lon="5.78937">
        <ele>1011</ele>
        <time>2017-05-03T15:43:58Z</time>
      </trkpt>
      <trkpt lat="44.79317" lon="5.78891">
        <ele>1022</ele>
        <time>2017-05-03T15:44:08Z</time>
      </trkpt>
      <trkpt lat="44.79311" lon="5.7888">
        <ele>1024</ele>
        <time>2017-05-03T15:44:26Z</time>
      </trkpt>
      <trkpt lat="44.79299" lon="5.78868">
        <ele>1025</ele>
        <time>2017-05-03T15:44:36Z</time>
      </trkpt>
      <trkpt lat="44.79283" lon="5.78854">
        <ele>1027</ele>
        <time>2017-05-03T15:44:44Z</time>
      </trkpt>
      <trkpt lat="44.79262" lon="5.78845">
        <ele>1028</ele>
        <time>2017-05-03T15:44:54Z</time>
      </trkpt>
      <trkpt lat="44.79235" lon="5.78834">
        <ele>1022</ele>
        <time>2017-05-03T15:45:11Z</time>
      </trkpt>
      <trkpt lat="44.79213" lon="5.78828">
        <ele>1033</ele>
        <time>2017-05-03T15:45:14Z</time>
      </trkpt>
      <trkpt lat="44.79199" lon="5.78827">
        <ele>1031</ele>
        <time>2017-05-03T15:45:27Z</time>
      </trkpt>
      <trkpt lat="44.79186" lon="5.78826">
        <ele>1027</ele>
        <time>2017-05-03T15:45:45Z</time>
      </trkpt>
      <trkpt lat="44.79181" lon="5.78824">
        <ele>1026</ele>
        <time>2017-05-03T15:45:59Z</time>
      </trkpt>
      <trkpt lat="44.79172" lon="5.78814">
        <ele>1027</ele>
        <time>2017-05-03T15:46:09Z</time>
      </trkpt>
      <trkpt lat="44.79149" lon="5.78776">
        <ele>1020</ele>
        <time>2017-05-03T15:46:26Z</time>
      </trkpt>
      <trkpt lat="44.79127" lon="5.78727">
        <ele>1031</ele>
        <time>2017-05-03T15:46:29Z</time>
      </trkpt>
      <trkpt lat="44.79087" lon="5.78658">
        <ele>1035</ele>
        <time>2017-05-03T15:46:32Z</time>
      </trkpt>
      <trkpt lat="44.79059" lon="5.78615">
        <ele>1029</ele>
        <time>2017-05-03T15:46:52Z</time>
      </trkpt>
      <trkpt lat="44.79041" lon="5.78589">
        <ele>1029</ele>
        <time>2017-05-03T15:47:09Z</time>
      </trkpt>
      <trkpt lat="44.79031" lon="5.78545">
        <ele>1033</ele>
        <time>2017-05-03T15:47:21Z</time>
      </trkpt>
      <trkpt lat="44.7903" lon="5.78521">
        <ele>1033</ele>
        <time>2017-05-03T15:47:26Z</time>
      </trkpt>
      <trkpt lat="44.79035" lon="5.785">
        <ele>1033</ele>
        <time>2017-05-03T15:47:35Z</time>
      </trkpt>
      <trkpt lat="44.79055" lon="5.78467">
        <ele>1033</ele>
        <time>2017-05-03T15:47:47Z</time>
      </trkpt>
      <trkpt lat="44.79058" lon="5.78458">
        <ele>1032</ele>
        <time>2017-05-03T15:48:06Z</time>
      </trkpt>
      <trkpt lat="44.79055" lon="5.78448">
        <ele>1032</ele>
        <time>2017-05-03T15:48:21Z</time>
      </trkpt>
      <trkpt lat="44.79025" lon="5.78407">
        <ele>1029</ele>
        <time>2017-05-03T15:48:36Z</time>
      </trkpt>
      <trkpt lat="44.79012" lon="5.78387">
        <ele>1028</ele>
        <time>2017-05-03T15:48:45Z</time>
      </trkpt>
      <trkpt lat="44.79007" lon="5.78374">
        <ele>1027</ele>
        <time>2017-05-03T15:48:58Z</time>
      </trkpt>
      <trkpt lat="44.79002" lon="5.78359">
        <ele>1026</ele>
        <time>2017-05-03T15:49:14Z</time>
      </trkpt>
      <trkpt lat="44.7896" lon="5.78285">
        <ele>1019</ele>
        <time>2017-05-03T15:49:24Z</time>
      </trkpt>
      <trkpt lat="44.78933" lon="5.78247">
        <ele>1014</ele>
        <time>2017-05-03T15:49:44Z</time>
      </trkpt>
      <trkpt lat="44.78924" lon="5.78195">
        <ele>1011</ele>
        <time>2017-05-03T15:49:46Z</time>
      </trkpt>
      <trkpt lat="44.78906" lon="5.78136">
        <ele>1001</ele>
        <time>2017-05-03T15:49:56Z</time>
      </trkpt>
      <trkpt lat="44.78895" lon="5.78116">
        <ele>999</ele>
        <time>2017-05-03T15:50:10Z</time>
      </trkpt>
      <trkpt lat="44.78888" lon="5.78109">
        <ele>999</ele>
        <time>2017-05-03T15:50:14Z</time>
      </trkpt>
      <trkpt lat="44.7885" lon="5.7809">
        <ele>996</ele>
        <time>2017-05-03T15:50:19Z</time>
      </trkpt>
      <trkpt lat="44.78798" lon="5.78069">
        <ele>987</ele>
        <time>2017-05-03T15:50:36Z</time>
      </trkpt>
      <trkpt lat="44.78789" lon="5.78065">
        <ele>986</ele>
        <time>2017-05-03T15:50:41Z</time>
      </trkpt>
      <trkpt lat="44.78779" lon="5.78046">
        <ele>985</ele>
        <time>2017-05-03T15:50:54Z</time>
      </trkpt>
      <trkpt lat="44.78729" lon="5.77979">
        <ele>977</ele>
        <time>2017-05-03T15:51:08Z</time>
      </trkpt>
      <trkpt lat="44.78696" lon="5.77928">
        <ele>973</ele>
        <time>2017-05-03T15:51:14Z</time>
      </trkpt>
      <trkpt lat="44.78675" lon="5.77892">
        <ele>969</ele>
        <time>2017-05-03T15:51:20Z</time>
      </trkpt>
      <trkpt lat="44.7865" lon="5.77856">
        <ele>964</ele>
        <time>2017-05-03T15:51:28Z</time>
      </trkpt>
      <trkpt lat="44.7864" lon="5.77835">
        <ele>964</ele>
        <time>2017-05-03T15:51:46Z</time>
      </trkpt>
      <trkpt lat="44.78632" lon="5.77813">
        <ele>960</ele>
        <time>2017-05-03T15:52:03Z</time>
      </trkpt>
      <trkpt lat="44.78626" lon="5.778">
        <ele>960</ele>
        <time>2017-05-03T15:52:09Z</time>
      </trkpt>
      <trkpt lat="44.78627" lon="5.77788">
        <ele>959</ele>
        <time>2017-05-03T15:52:18Z</time>
      </trkpt>
      <trkpt lat="44.78617" lon="5.77725">
        <ele>955</ele>
        <time>2017-05-03T15:52:34Z</time>
      </trkpt>
      <trkpt lat="44.78605" lon="5.77675">
        <ele>953</ele>
        <time>2017-05-03T15:52:38Z</time>
      </trkpt>
      <trkpt lat="44.78603" lon="5.77669">
        <ele>953</ele>
        <time>2017-05-03T15:52:46Z</time>
      </trkpt>
      <trkpt lat="44.78602" lon="5.77659">
        <ele>949</ele>
        <time>2017-05-03T15:52:58Z</time>
      </trkpt>
      <trkpt lat="44.78607" lon="5.77648">
        <ele>948</ele>
        <time>2017-05-03T15:53:12Z</time>
      </trkpt>
      <trkpt lat="44.78612" lon="5.77645">
        <ele>948</ele>
        <time>2017-05-03T15:53:16Z</time>
      </trkpt>
      <trkpt lat="44.78617" lon="5.77645">
        <ele>948</ele>
        <time>2017-05-03T15:53:35Z</time>
      </trkpt>
      <trkpt lat="44.78639" lon="5.77663">
        <ele>950</ele>
        <time>2017-05-03T15:53:43Z</time>
      </trkpt>
      <trkpt lat="44.78647" lon="5.77661">
        <ele>951</ele>
        <time>2017-05-03T15:54:01Z</time>
      </trkpt>
      <trkpt lat="44.78662" lon="5.77629">
        <ele>948</ele>
        <time>2017-05-03T15:54:14Z</time>
      </trkpt>
      <trkpt lat="44.78688" lon="5.77574">
        <ele>945</ele>
        <time>2017-05-03T15:54:31Z</time>
      </trkpt>
      <trkpt lat="44.78698" lon="5.77559">
        <ele>945</ele>
        <time>2017-05-03T15:54:48Z</time>
      </trkpt>
      <trkpt lat="44.7871" lon="5.77547">
        <ele>945</ele>
        <time>2017-05-03T15:55:05Z</time>
      </trkpt>
      <trkpt lat="44.78741" lon="5.77528">
        <ele>946</ele>
        <time>2017-05-03T15:55:23Z</time>
      </trkpt>
      <trkpt lat="44.78734" lon="5.77506">
        <ele>945</ele>
        <time>2017-05-03T15:55:26Z</time>
      </trkpt>
      <trkpt lat="44.78731" lon="5.77499">
        <ele>941</ele>
        <time>2017-05-03T15:55:29Z</time>
      </trkpt>
      <trkpt lat="44.7867" lon="5.77434">
        <ele>931</ele>
        <time>2017-05-03T15:55:39Z</time>
      </trkpt>
      <trkpt lat="44.7866" lon="5.77414">
        <ele>925</ele>
        <time>2017-05-03T15:55:42Z</time>
      </trkpt>
      <trkpt lat="44.78656" lon="5.77398">
        <ele>921</ele>
        <time>2017-05-03T15:55:58Z</time>
      </trkpt>
      <trkpt lat="44.78656" lon="5.77382">
        <ele>919</ele>
        <time>2017-05-03T15:56:17Z</time>
      </trkpt>
      <trkpt lat="44.78657" lon="5.77231">
        <ele>906</ele>
        <time>2017-05-03T15:56:35Z</time>
      </trkpt>
      <trkpt lat="44.78652" lon="5.77216">
        <ele>904</ele>
        <time>2017-05-03T15:56:54Z</time>
      </trkpt>
      <trkpt lat="44.78642" lon="5.77208">
        <ele>902</ele>
        <time>2017-05-03T15:57:13Z</time>
      </trkpt>
      <trkpt lat="44.78631" lon="5.77208">
        <ele>901</ele>
        <time>2017-05-03T15:57:27Z</time>
      </trkpt>
      <trkpt lat="44.78612" lon="5.77226">
        <ele>899</ele>
        <time>2017-05-03T15:57:32Z</time>
      </trkpt>
      <trkpt lat="44.78602" lon="5.77248">
        <ele>898</ele>
        <time>2017-05-03T15:57:46Z</time>
      </trkpt>
      <trkpt lat="44.78582" lon="5.77336">
        <ele>902</ele>
        <time>2017-05-03T15:57:48Z</time>
      </trkpt>
      <trkpt lat="44.7857" lon="5.77389">
        <ele>904</ele>
        <time>2017-05-03T15:57:52Z</time>
      </trkpt>
      <trkpt lat="44.78565" lon="5.77403">
        <ele>905</ele>
        <time>2017-05-03T15:58:07Z</time>
      </trkpt>
      <trkpt lat="44.78559" lon="5.77403">
        <ele>904</ele>
        <time>2017-05-03T15:58:27Z</time>
      </trkpt>
      <trkpt lat="44.78556" lon="5.77393">
        <ele>903</ele>
        <time>2017-05-03T15:58:41Z</time>
      </trkpt>
      <trkpt lat="44.78557" lon="5.77275">
        <ele>890</ele>
        <time>2017-05-03T15:58:57Z</time>
      </trkpt>
      <trkpt lat="44.78548" lon="5.77227">
        <ele>882</ele>
        <time>2017-05-03T15:58:59Z</time>
      </trkpt>
      <trkpt lat="44.78544" lon="5.7719">
        <ele>880</ele>
        <time>2017-05-03T15:59:03Z</time>
      </trkpt>
      <trkpt lat="44.78548" lon="5.77159">
        <ele>877</ele>
        <time>2017-05-03T15:59:19Z</time>
      </trkpt>
      <trkpt lat="44.78547" lon="5.77155">
        <ele>876</ele>
        <time>2017-05-03T15:59:39Z</time>
      </trkpt>
      <trkpt lat="44.78543" lon="5.77153">
        <ele>876</ele>
        <time>2017-05-03T15:59:43Z</time>
      </trkpt>
      <trkpt lat="44.78539" lon="5.77155">
        <ele>875</ele>
        <time>2017-05-03T16:00:01Z</time>
      </trkpt>
      <trkpt lat="44.78534" lon="5.77165">
        <ele>874</ele>
        <time>2017-05-03T16:00:16Z</time>
      </trkpt>
      <trkpt lat="44.78521" lon="5.77207">
        <ele>878</ele>
        <time>2017-05-03T16:00:20Z</time>
      </trkpt>
      <trkpt lat="44.78512" lon="5.77212">
        <ele>878</ele>
        <time>2017-05-03T16:00:40Z</time>
      </trkpt>
      <trkpt lat="44.78499" lon="5.77213">
        <ele>869</ele>
        <time>2017-05-03T16:00:42Z</time>
      </trkpt>
      <trkpt lat="44.78487" lon="5.77211">
        <ele>869</ele>
        <time>2017-05-03T16:00:58Z</time>
      </trkpt>
      <trkpt lat="44.78475" lon="5.7721">
        <ele>868</ele>
        <time>2017-05-03T16:01:00Z</time>
      </trkpt>
      <trkpt lat="44.78461" lon="5.77211">
        <ele>868</ele>
        <time>2017-05-03T16:01:14Z</time>
      </trkpt>
      <trkpt lat="44.78446" lon="5.77216">
        <ele>867</ele>
        <time>2017-05-03T16:01:19Z</time>
      </trkpt>
      <trkpt lat="44.78445" lon="5.77207">
        <ele>867</ele>
        <time>2017-05-03T16:01:22Z</time>
      </trkpt>
      <trkpt lat="44.78446" lon="5.77195">
        <ele>867</ele>
        <time>2017-05-03T16:01:26Z</time>
      </trkpt>
      <trkpt lat="44.7845" lon="5.77182">
        <ele>866</ele>
        <time>2017-05-03T16:01:43Z</time>
      </trkpt>
      <trkpt lat="44.78438" lon="5.77156">
        <ele>863</ele>
        <time>2017-05-03T16:01:59Z</time>
      </trkpt>
      <trkpt lat="44.78428" lon="5.77146">
        <ele>862</ele>
        <time>2017-05-03T16:02:11Z</time>
      </trkpt>
      <trkpt lat="44.78414" lon="5.77124">
        <ele>859</ele>
        <time>2017-05-03T16:02:30Z</time>
      </trkpt>
      <trkpt lat="44.78404" lon="5.77096">
        <ele>858</ele>
        <time>2017-05-03T16:02:43Z</time>
      </trkpt>
      <trkpt lat="44.78368" lon="5.77029">
        <ele>854</ele>
        <time>2017-05-03T16:03:02Z</time>
      </trkpt>
      <trkpt lat="44.78357" lon="5.76994">
        <ele>851</ele>
        <time>2017-05-03T16:03:09Z</time>
      </trkpt>
      <trkpt lat="44.78336" lon="5.76945">
        <ele>850</ele>
        <time>2017-05-03T16:03:20Z</time>
      </trkpt>
      <trkpt lat="44.78347" lon="5.76939">
        <ele>850</ele>
        <time>2017-05-03T16:03:35Z</time>
      </trkpt>
      <trkpt lat="44.78369" lon="5.76931">
        <ele>850</ele>
        <time>2017-05-03T16:03:53Z</time>
      </trkpt>
      <trkpt lat="44.7838" lon="5.76926">
        <ele>850</ele>
        <time>2017-05-03T16:04:02Z</time>
      </trkpt>
      <trkpt lat="44.78383" lon="5.76924">
        <ele>850</ele>
        <time>2017-05-03T16:04:16Z</time>
      </trkpt>
      <trkpt lat="44.78378" lon="5.76922">
        <ele>850</ele>
        <time>2017-05-03T16:04:22Z</time>
      </trkpt>
      <trkpt lat="44.78354" lon="5.76914">
        <ele>847</ele>
        <time>2017-05-03T16:04:34Z</time>
      </trkpt>
      <trkpt lat="44.78339" lon="5.76912">
        <ele>847</ele>
        <time>2017-05-03T16:04:38Z</time>
      </trkpt>
      <trkpt lat="44.78326" lon="5.76915">
        <ele>845</ele>
        <time>2017-05-03T16:04:40Z</time>
      </trkpt>
      <trkpt lat="44.7832" lon="5.76919">
        <ele>846</ele>
        <time>2017-05-03T16:04:46Z</time>
      </trkpt>
      <trkpt lat="44.78296" lon="5.76952">
        <ele>846</ele>
        <time>2017-05-03T16:05:06Z</time>
      </trkpt>
      <trkpt lat="44.7827" lon="5.76988">
        <ele>845</ele>
        <time>2017-05-03T16:05:16Z</time>
      </trkpt>
      <trkpt lat="44.78258" lon="5.76997">
        <ele>844</ele>
        <time>2017-05-03T16:05:32Z</time>
      </trkpt>
      <trkpt lat="44.7825" lon="5.76997">
        <ele>844</ele>
        <time>2017-05-03T16:05:43Z</time>
      </trkpt>
      <trkpt lat="44.78241" lon="5.76994">
        <ele>844</ele>
        <time>2017-05-03T16:05:51Z</time>
      </trkpt>
      <trkpt lat="44.78224" lon="5.76981">
        <ele>843</ele>
        <time>2017-05-03T16:05:58Z</time>
      </trkpt>
      <trkpt lat="44.78215" lon="5.76975">
        <ele>843</ele>
        <time>2017-05-03T16:06:12Z</time>
      </trkpt>
      <trkpt lat="44.78192" lon="5.7695">
        <ele>843</ele>
        <time>2017-05-03T16:06:28Z</time>
      </trkpt>
      <trkpt lat="44.78186" lon="5.76934">
        <ele>844</ele>
        <time>2017-05-03T16:06:40Z</time>
      </trkpt>
      <trkpt lat="44.78186" lon="5.76916">
        <ele>844</ele>
        <time>2017-05-03T16:06:50Z</time>
      </trkpt>
      <trkpt lat="44.78189" lon="5.76901">
        <ele>843</ele>
        <time>2017-05-03T16:06:55Z</time>
      </trkpt>
      <trkpt lat="44.78203" lon="5.76863">
        <ele>843</ele>
        <time>2017-05-03T16:07:01Z</time>
      </trkpt>
      <trkpt lat="44.78216" lon="5.76821">
        <ele>843</ele>
        <time>2017-05-03T16:07:10Z</time>
      </trkpt>
      <trkpt lat="44.78218" lon="5.76804">
        <ele>843</ele>
        <time>2017-05-03T16:07:19Z</time>
      </trkpt>
      <trkpt lat="44.78214" lon="5.76781">
        <ele>844</ele>
        <time>2017-05-03T16:07:32Z</time>
      </trkpt>
      <trkpt lat="44.78206" lon="5.76767">
        <ele>844</ele>
        <time>2017-05-03T16:07:48Z</time>
      </trkpt>
      <trkpt lat="44.78192" lon="5.76759">
        <ele>845</ele>
        <time>2017-05-03T16:07:52Z</time>
      </trkpt>
      <trkpt lat="44.78155" lon="5.76744">
        <ele>847</ele>
        <time>2017-05-03T16:08:07Z</time>
      </trkpt>
      <trkpt lat="44.78114" lon="5.76735">
        <ele>848</ele>
        <time>2017-05-03T16:08:25Z</time>
      </trkpt>
      <trkpt lat="44.7808" lon="5.76733">
        <ele>850</ele>
        <time>2017-05-03T16:08:28Z</time>
      </trkpt>
      <trkpt lat="44.78058" lon="5.76736">
        <ele>850</ele>
        <time>2017-05-03T16:08:38Z</time>
      </trkpt>
      <trkpt lat="44.78042" lon="5.76741">
        <ele>850</ele>
        <time>2017-05-03T16:08:49Z</time>
      </trkpt>
      <trkpt lat="44.78022" lon="5.7676">
        <ele>852</ele>
        <time>2017-05-03T16:09:02Z</time>
      </trkpt>
      <trkpt lat="44.78004" lon="5.76779">
        <ele>852</ele>
        <time>2017-05-03T16:09:12Z</time>
      </trkpt>
      <trkpt lat="44.77982" lon="5.76787">
        <ele>852</ele>
        <time>2017-05-03T16:09:29Z</time>
      </trkpt>
      <trkpt lat="44.77935" lon="5.76798">
        <ele>853</ele>
        <time>2017-05-03T16:09:43Z</time>
      </trkpt>
      <trkpt lat="44.77906" lon="5.768">
        <ele>854</ele>
        <time>2017-05-03T16:09:59Z</time>
      </trkpt>
      <trkpt lat="44.77894" lon="5.76804">
        <ele>854</ele>
        <time>2017-05-03T16:10:05Z</time>
      </trkpt>
      <trkpt lat="44.77883" lon="5.76817">
        <ele>854</ele>
        <time>2017-05-03T16:10:21Z</time>
      </trkpt>
      <trkpt lat="44.77869" lon="5.76838">
        <ele>855</ele>
        <time>2017-05-03T16:10:36Z</time>
      </trkpt>
      <trkpt lat="44.77856" lon="5.76851">
        <ele>855</ele>
        <time>2017-05-03T16:10:54Z</time>
      </trkpt>
      <trkpt lat="44.77847" lon="5.76864">
        <ele>856</ele>
        <time>2017-05-03T16:11:00Z</time>
      </trkpt>
      <trkpt lat="44.77836" lon="5.76882">
        <ele>856</ele>
        <time>2017-05-03T16:11:15Z</time>
      </trkpt>
      <trkpt lat="44.77823" lon="5.76884">
        <ele>859</ele>
        <time>2017-05-03T16:11:26Z</time>
      </trkpt>
      <trkpt lat="44.77801" lon="5.76874">
        <ele>860</ele>
        <time>2017-05-03T16:11:33Z</time>
      </trkpt>
      <trkpt lat="44.77744" lon="5.76907">
        <ele>865</ele>
        <time>2017-05-03T16:11:44Z</time>
      </trkpt>
      <trkpt lat="44.77709" lon="5.76927">
        <ele>868</ele>
        <time>2017-05-03T16:12:03Z</time>
      </trkpt>
      <trkpt lat="44.77674" lon="5.76942">
        <ele>871</ele>
        <time>2017-05-03T16:12:06Z</time>
      </trkpt>
      <trkpt lat="44.77658" lon="5.76948">
        <ele>876</ele>
        <time>2017-05-03T16:12:11Z</time>
      </trkpt>
      <trkpt lat="44.77643" lon="5.76959">
        <ele>875</ele>
        <time>2017-05-03T16:12:22Z</time>
      </trkpt>
      <trkpt lat="44.77609" lon="5.76972">
        <ele>876</ele>
        <time>2017-05-03T16:12:39Z</time>
      </trkpt>
      <trkpt lat="44.77554" lon="5.76989">
        <ele>879</ele>
        <time>2017-05-03T16:12:47Z</time>
      </trkpt>
      <trkpt lat="44.77496" lon="5.77021">
        <ele>878</ele>
        <time>2017-05-03T16:12:57Z</time>
      </trkpt>
      <trkpt lat="44.77476" lon="5.77029">
        <ele>877</ele>
        <time>2017-05-03T16:13:14Z</time>
      </trkpt>
      <trkpt lat="44.77462" lon="5.77033">
        <ele>878</ele>
        <time>2017-05-03T16:13:29Z</time>
      </trkpt>
      <trkpt lat="44.77415" lon="5.77057">
        <ele>880</ele>
        <time>2017-05-03T16:13:31Z</time>
      </trkpt>
      <trkpt lat="44.77376" lon="5.77075">
        <ele>881</ele>
        <time>2017-05-03T16:13:48Z</time>
      </trkpt>
      <trkpt lat="44.77367" lon="5.77075">
        <ele>882</ele>
        <time>2017-05-03T16:13:53Z</time>
      </trkpt>
      <trkpt lat="44.77314" lon="5.77033">
        <ele>886</ele>
        <time>2017-05-03T16:14:07Z</time>
      </trkpt>
      <trkpt lat="44.77293" lon="5.7702">
        <ele>887</ele>
        <time>2017-05-03T16:14:22Z</time>
      </trkpt>
      <trkpt lat="44.7727" lon="5.77011">
        <ele>888</ele>
        <time>2017-05-03T16:14:32Z</time>
      </trkpt>
      <trkpt lat="44.77252" lon="5.77008">
        <ele>890</ele>
        <time>2017-05-03T16:14:39Z</time>
      </trkpt>
      <trkpt lat="44.77192" lon="5.77007">
        <ele>891</ele>
        <time>2017-05-03T16:14:44Z</time>
      </trkpt>
      <trkpt lat="44.77182" lon="5.77005">
        <ele>892</ele>
        <time>2017-05-03T16:14:57Z</time>
      </trkpt>
      <trkpt lat="44.77149" lon="5.76991">
        <ele>896</ele>
        <time>2017-05-03T16:15:09Z</time>
      </trkpt>
      <trkpt lat="44.77137" lon="5.76987">
        <ele>898</ele>
        <time>2017-05-03T16:15:29Z</time>
      </trkpt>
      <trkpt lat="44.77101" lon="5.76991">
        <ele>898</ele>
        <time>2017-05-03T16:15:49Z</time>
      </trkpt>
      <trkpt lat="44.77067" lon="5.76997">
        <ele>901</ele>
        <time>2017-05-03T16:15:57Z</time>
      </trkpt>
      <trkpt lat="44.77037" lon="5.76999">
        <ele>903</ele>
        <time>2017-05-03T16:15:59Z</time>
      </trkpt>
      <trkpt lat="44.76906" lon="5.76989">
        <ele>916</ele>
        <time>2017-05-03T16:16:05Z</time>
      </trkpt>
      <trkpt lat="44.76827" lon="5.76979">
        <ele>922</ele>
        <time>2017-05-03T16:16:24Z</time>
      </trkpt>
      <trkpt lat="44.76799" lon="5.76965">
        <ele>923</ele>
        <time>2017-05-03T16:16:30Z</time>
      </trkpt>
      <trkpt lat="44.76775" lon="5.76956">
        <ele>923</ele>
        <time>2017-05-03T16:16:41Z</time>
      </trkpt>
      <trkpt lat="44.7674" lon="5.76951">
        <ele>928</ele>
        <time>2017-05-03T16:16:51Z</time>
      </trkpt>
      <trkpt lat="44.76684" lon="5.7695">
        <ele>931</ele>
        <time>2017-05-03T16:16:55Z</time>
      </trkpt>
      <trkpt lat="44.76675" lon="5.76952">
        <ele>931</ele>
        <time>2017-05-03T16:17:08Z</time>
      </trkpt>
      <trkpt lat="44.76638" lon="5.76971">
        <ele>939</ele>
        <time>2017-05-03T16:17:14Z</time>
      </trkpt>
      <trkpt lat="44.7662" lon="5.7698">
        <ele>941</ele>
        <time>2017-05-03T16:17:30Z</time>
      </trkpt>
      <trkpt lat="44.76603" lon="5.76982">
        <ele>942</ele>
        <time>2017-05-03T16:17:37Z</time>
      </trkpt>
      <trkpt lat="44.76592" lon="5.76981">
        <ele>943</ele>
        <time>2017-05-03T16:17:48Z</time>
      </trkpt>
      <trkpt lat="44.76587" lon="5.76978">
        <ele>943</ele>
        <time>2017-05-03T16:17:56Z</time>
      </trkpt>
      <trkpt lat="44.76556" lon="5.77013">
        <ele>959</ele>
        <time>2017-05-03T16:18:02Z</time>
      </trkpt>
      <trkpt lat="44.76537" lon="5.77027">
        <ele>962</ele>
        <time>2017-05-03T16:18:16Z</time>
      </trkpt>
      <trkpt lat="44.765" lon="5.77043">
        <ele>964</ele>
        <time>2017-05-03T16:18:22Z</time>
      </trkpt>
      <trkpt lat="44.76484" lon="5.77052">
        <ele>972</ele>
        <time>2017-05-03T16:18:38Z</time>
      </trkpt>
      <trkpt lat="44.76474" lon="5.77061">
        <ele>973</ele>
        <time>2017-05-03T16:18:50Z</time>
      </trkpt>
      <trkpt lat="44.76469" lon="5.77068">
        <ele>974</ele>
        <time>2017-05-03T16:18:56Z</time>
      </trkpt>
      <trkpt lat="44.76466" lon="5.77081">
        <ele>974</ele>
        <time>2017-05-03T16:19:00Z</time>
      </trkpt>
      <trkpt lat="44.76461" lon="5.7711">
        <ele>978</ele>
        <time>2017-05-03T16:19:13Z</time>
      </trkpt>
      <trkpt lat="44.76458" lon="5.77187">
        <ele>983</ele>
        <time>2017-05-03T16:19:23Z</time>
      </trkpt>
      <trkpt lat="44.76455" lon="5.77216">
        <ele>983</ele>
        <time>2017-05-03T16:19:42Z</time>
      </trkpt>
      <trkpt lat="44.76445" lon="5.77239">
        <ele>983</ele>
        <time>2017-05-03T16:19:50Z</time>
      </trkpt>
      <trkpt lat="44.76433" lon="5.77249">
        <ele>982</ele>
        <time>2017-05-03T16:20:00Z</time>
      </trkpt>
      <trkpt lat="44.76417" lon="5.77252">
        <ele>982</ele>
        <time>2017-05-03T16:20:11Z</time>
      </trkpt>
      <trkpt lat="44.76402" lon="5.77255">
        <ele>986</ele>
        <time>2017-05-03T16:20:13Z</time>
      </trkpt>
      <trkpt lat="44.76394" lon="5.77263">
        <ele>988</ele>
        <time>2017-05-03T16:20:33Z</time>
      </trkpt>
      <trkpt lat="44.76368" lon="5.77296">
        <ele>991</ele>
        <time>2017-05-03T16:20:38Z</time>
      </trkpt>
      <trkpt lat="44.76358" lon="5.773">
        <ele>992</ele>
        <time>2017-05-03T16:20:49Z</time>
      </trkpt>
      <trkpt lat="44.76352" lon="5.77295">
        <ele>992</ele>
        <time>2017-05-03T16:21:08Z</time>
      </trkpt>
      <trkpt lat="44.76354" lon="5.77283">
        <ele>992</ele>
        <time>2017-05-03T16:21:23Z</time>
      </trkpt>
      <trkpt lat="44.76362" lon="5.77264">
        <ele>992</ele>
        <time>2017-05-03T16:21:34Z</time>
      </trkpt>
      <trkpt lat="44.76364" lon="5.77232">
        <ele>994</ele>
        <time>2017-05-03T16:21:36Z</time>
      </trkpt>
      <trkpt lat="44.76362" lon="5.772">
        <ele>995</ele>
        <time>2017-05-03T16:21:45Z</time>
      </trkpt>
      <trkpt lat="44.76352" lon="5.77169">
        <ele>1000</ele>
        <time>2017-05-03T16:21:50Z</time>
      </trkpt>
      <trkpt lat="44.76327" lon="5.77129">
        <ele>1024</ele>
        <time>2017-05-03T16:22:00Z</time>
      </trkpt>
      <trkpt lat="44.76308" lon="5.77115">
        <ele>1028</ele>
        <time>2017-05-03T16:22:20Z</time>
      </trkpt>
      <trkpt lat="44.76273" lon="5.77106">
        <ele>1036</ele>
        <time>2017-05-03T16:22:30Z</time>
      </trkpt>
      <trkpt lat="44.76263" lon="5.77105">
        <ele>1038</ele>
        <time>2017-05-03T16:22:37Z</time>
      </trkpt>
      <trkpt lat="44.76257" lon="5.77096">
        <ele>1043</ele>
        <time>2017-05-03T16:22:42Z</time>
      </trkpt>
      <trkpt lat="44.76257" lon="5.77066">
        <ele>1045</ele>
        <time>2017-05-03T16:22:56Z</time>
      </trkpt>
      <trkpt lat="44.76261" lon="5.77035">
        <ele>1043</ele>
        <time>2017-05-03T16:23:01Z</time>
      </trkpt>
      <trkpt lat="44.76245" lon="5.77051">
        <ele>1063</ele>
        <time>2017-05-03T16:23:20Z</time>
      </trkpt>
      <trkpt lat="44.76232" lon="5.77061">
        <ele>1064</ele>
        <time>2017-05-03T16:23:24Z</time>
      </trkpt>
      <trkpt lat="44.76202" lon="5.77062">
        <ele>1071</ele>
        <time>2017-05-03T16:23:29Z</time>
      </trkpt>
      <trkpt lat="44.76193" lon="5.7706">
        <ele>1073</ele>
        <time>2017-05-03T16:23:49Z</time>
      </trkpt>
      <trkpt lat="44.76188" lon="5.77064">
        <ele>1074</ele>
        <time>2017-05-03T16:24:06Z</time>
      </trkpt>
      <trkpt lat="44.76176" lon="5.77091">
        <ele>1076</ele>
        <time>2017-05-03T16:24:09Z</time>
      </trkpt>
      <trkpt lat="44.76168" lon="5.77102">
        <ele>1073</ele>
        <time>2017-05-03T16:24:23Z</time>
      </trkpt>
      <trkpt lat="44.76154" lon="5.77111">
        <ele>1091</ele>
        <time>2017-05-03T16:24:31Z</time>
      </trkpt>
      <trkpt lat="44.76122" lon="5.77126">
        <ele>1096</ele>
        <time>2017-05-03T16:24:36Z</time>
      </trkpt>
      <trkpt lat="44.76108" lon="5.77139">
        <ele>1098</ele>
        <time>2017-05-03T16:24:51Z</time>
      </trkpt>
      <trkpt lat="44.76103" lon="5.7717">
        <ele>1097</ele>
        <time>2017-05-03T16:24:55Z</time>
      </trkpt>
      <trkpt lat="44.76107" lon="5.77229">
        <ele>1096</ele>
        <time>2017-05-03T16:25:02Z</time>
      </trkpt>
      <trkpt lat="44.76098" lon="5.77233">
        <ele>1099</ele>
        <time>2017-05-03T16:25:20Z</time>
      </trkpt>
      <trkpt lat="44.76088" lon="5.77227">
        <ele>1100</ele>
        <time>2017-05-03T16:25:39Z</time>
      </trkpt>
      <trkpt lat="44.76074" lon="5.77211">
        <ele>1113</ele>
        <time>2017-05-03T16:25:44Z</time>
      </trkpt>
      <trkpt lat="44.76061" lon="5.77189">
        <ele>1112</ele>
        <time>2017-05-03T16:25:59Z</time>
      </trkpt>
      <trkpt lat="44.7606" lon="5.77188">
        <ele>1112</ele>
        <time>2017-05-03T16:26:17Z</time>
      </trkpt>
      <trkpt lat="44.76048" lon="5.77169">
        <ele>1112</ele>
        <time>2017-05-03T16:26:34Z</time>
      </trkpt>
      <trkpt lat="44.76044" lon="5.77159">
        <ele>1112</ele>
        <time>2017-05-03T16:26:52Z</time>
      </trkpt>
      <trkpt lat="44.76041" lon="5.77157">
        <ele>1112</ele>
        <time>2017-05-03T16:27:05Z</time>
      </trkpt>
      <trkpt lat="44.76037" lon="5.77157">
        <ele>1112</ele>
        <time>2017-05-03T16:27:16Z</time>
      </trkpt>
      <trkpt lat="44.76019" lon="5.77161">
        <ele>1111</ele>
        <time>2017-05-03T16:27:36Z</time>
      </trkpt>
      <trkpt lat="44.76017" lon="5.77144">
        <ele>1112</ele>
        <time>2017-05-03T16:27:39Z</time>
      </trkpt>
      <trkpt lat="44.76029" lon="5.77115">
        <ele>1113</ele>
        <time>2017-05-03T16:27:53Z</time>
      </trkpt>
      <trkpt lat="44.76032" lon="5.77099">
        <ele>1114</ele>
        <time>2017-05-03T16:28:04Z</time>
      </trkpt>
      <trkpt lat="44.76032" lon="5.77071">
        <ele>1123</ele>
        <time>2017-05-03T16:28:07Z</time>
      </trkpt>
      <trkpt lat="44.76031" lon="5.7706">
        <ele>1125</ele>
        <time>2017-05-03T16:28:13Z</time>
      </trkpt>
      <trkpt lat="44.76028" lon="5.7705">
        <ele>1126</ele>
        <time>2017-05-03T16:28:29Z</time>
      </trkpt>
      <trkpt lat="44.76021" lon="5.77039">
        <ele>1127</ele>
        <time>2017-05-03T16:28:31Z</time>
      </trkpt>
      <trkpt lat="44.76012" lon="5.77035">
        <ele>1128</ele>
        <time>2017-05-03T16:28:33Z</time>
      </trkpt>
      <trkpt lat="44.76004" lon="5.77022">
        <ele>1130</ele>
        <time>2017-05-03T16:28:46Z</time>
      </trkpt>
      <trkpt lat="44.75989" lon="5.76986">
        <ele>1130</ele>
        <time>2017-05-03T16:28:58Z</time>
      </trkpt>
      <trkpt lat="44.75973" lon="5.76934">
        <ele>1132</ele>
        <time>2017-05-03T16:29:18Z</time>
      </trkpt>
      <trkpt lat="44.75973" lon="5.76915">
        <ele>1142</ele>
        <time>2017-05-03T16:29:38Z</time>
      </trkpt>
      <trkpt lat="44.75984" lon="5.76852">
        <ele>1149</ele>
        <time>2017-05-03T16:29:48Z</time>
      </trkpt>
      <trkpt lat="44.75997" lon="5.76796">
        <ele>1158</ele>
        <time>2017-05-03T16:29:58Z</time>
      </trkpt>
      <trkpt lat="44.76004" lon="5.76781">
        <ele>1167</ele>
        <time>2017-05-03T16:30:08Z</time>
      </trkpt>
      <trkpt lat="44.76009" lon="5.76777">
        <ele>1168</ele>
        <time>2017-05-03T16:30:14Z</time>
      </trkpt>
      <trkpt lat="44.76013" lon="5.76771">
        <ele>1168</ele>
        <time>2017-05-03T16:30:17Z</time>
      </trkpt>
      <trkpt lat="44.76017" lon="5.76744">
        <ele>1176</ele>
        <time>2017-05-03T16:30:21Z</time>
      </trkpt>
      <trkpt lat="44.76016" lon="5.76699">
        <ele>1182</ele>
        <time>2017-05-03T16:30:37Z</time>
      </trkpt>
      <trkpt lat="44.76013" lon="5.76628">
        <ele>1203</ele>
        <time>2017-05-03T16:30:48Z</time>
      </trkpt>
      <trkpt lat="44.7601" lon="5.76596">
        <ele>1213</ele>
        <time>2017-05-03T16:30:56Z</time>
      </trkpt>
      <trkpt lat="44.76014" lon="5.76567">
        <ele>1224</ele>
        <time>2017-05-03T16:31:07Z</time>
      </trkpt>
      <trkpt lat="44.76004" lon="5.7656">
        <ele>1225</ele>
        <time>2017-05-03T16:31:25Z</time>
      </trkpt>
      <trkpt lat="44.76" lon="5.76547">
        <ele>1225</ele>
        <time>2017-05-03T16:31:34Z</time>
      </trkpt>
      <trkpt lat="44.75968" lon="5.76433">
        <ele>1248</ele>
        <time>2017-05-03T16:31:51Z</time>
      </trkpt>
      <trkpt lat="44.75983" lon="5.76408">
        <ele>1261</ele>
        <time>2017-05-03T16:32:08Z</time>
      </trkpt>
      <trkpt lat="44.76018" lon="5.76339">
        <ele>1260</ele>
        <time>2017-05-03T16:32:14Z</time>
      </trkpt>
      <trkpt lat="44.76022" lon="5.76325">
        <ele>1270</ele>
        <time>2017-05-03T16:32:16Z</time>
      </trkpt>
      <trkpt lat="44.76026" lon="5.76323">
        <ele>1269</ele>
        <time>2017-05-03T16:32:31Z</time>
      </trkpt>
      <trkpt lat="44.76028" lon="5.76326">
        <ele>1269</ele>
        <time>2017-05-03T16:32:40Z</time>
      </trkpt>
      <trkpt lat="44.76024" lon="5.76373">
        <ele>1253</ele>
        <time>2017-05-03T16:32:53Z</time>
      </trkpt>
      <trkpt lat="44.76026" lon="5.76381">
        <ele>1252</ele>
        <time>2017-05-03T16:33:04Z</time>
      </trkpt>
      <trkpt lat="44.7603" lon="5.76383">
        <ele>1251</ele>
        <time>2017-05-03T16:33:15Z</time>
      </trkpt>
      <trkpt lat="44.76032" lon="5.76381">
        <ele>1250</ele>
        <time>2017-05-03T16:33:28Z</time>
      </trkpt>
      <trkpt lat="44.76043" lon="5.76343">
        <ele>1250</ele>
        <time>2017-05-03T16:33:45Z</time>
      </trkpt>
      <trkpt lat="44.76046" lon="5.76335">
        <ele>1249</ele>
        <time>2017-05-03T16:33:56Z</time>
      </trkpt>
      <trkpt lat="44.76061" lon="5.7632">
        <ele>1258</ele>
        <time>2017-05-03T16:34:09Z</time>
      </trkpt>
      <trkpt lat="44.76073" lon="5.76317">
        <ele>1254</ele>
        <time>2017-05-03T16:34:15Z</time>
      </trkpt>
      <trkpt lat="44.76079" lon="5.76311">
        <ele>1256</ele>
        <time>2017-05-03T16:34:19Z</time>
      </trkpt>
      <trkpt lat="44.76093" lon="5.76284">
        <ele>1245</ele>
        <time>2017-05-03T16:34:21Z</time>
      </trkpt>
      <trkpt lat="44.76115" lon="5.76274">
        <ele>1243</ele>
        <time>2017-05-03T16:34:23Z</time>
      </trkpt>
      <trkpt lat="44.76143" lon="5.76271">
        <ele>1238</ele>
        <time>2017-05-03T16:34:26Z</time>
      </trkpt>
      <trkpt lat="44.76196" lon="5.76215">
        <ele>1239</ele>
        <time>2017-05-03T16:34:41Z</time>
      </trkpt>
      <trkpt lat="44.76222" lon="5.76184">
        <ele>1239</ele>
        <time>2017-05-03T16:34:51Z</time>
      </trkpt>
      <trkpt lat="44.76246" lon="5.76188">
        <ele>1236</ele>
        <time>2017-05-03T16:35:03Z</time>
      </trkpt>
      <trkpt lat="44.76268" lon="5.76181">
        <ele>1216</ele>
        <time>2017-05-03T16:35:07Z</time>
      </trkpt>
      <trkpt lat="44.76274" lon="5.76163">
        <ele>1231</ele>
        <time>2017-05-03T16:35:11Z</time>
      </trkpt>
      <trkpt lat="44.76278" lon="5.76145">
        <ele>1231</ele>
        <time>2017-05-03T16:35:20Z</time>
      </trkpt>
      <trkpt lat="44.76268" lon="5.76093">
        <ele>1247</ele>
        <time>2017-05-03T16:35:25Z</time>
      </trkpt>
      <trkpt lat="44.76265" lon="5.76061">
        <ele>1264</ele>
        <time>2017-05-03T16:35:30Z</time>
      </trkpt>
      <trkpt lat="44.76268" lon="5.76054">
        <ele>1264</ele>
        <time>2017-05-03T16:35:48Z</time>
      </trkpt>
      <trkpt lat="44.76279" lon="5.7605">
        <ele>1262</ele>
        <time>2017-05-03T16:35:55Z</time>
      </trkpt>
      <trkpt lat="44.7629" lon="5.76047">
        <ele>1260</ele>
        <time>2017-05-03T16:36:01Z</time>
      </trkpt>
      <trkpt lat="44.76306" lon="5.76036">
        <ele>1257</ele>
        <time>2017-05-03T16:36:14Z</time>
      </trkpt>
      <trkpt lat="44.76317" lon="5.75999">
        <ele>1270</ele>
        <time>2017-05-03T16:36:33Z</time>
      </trkpt>
      <trkpt lat="44.76322" lon="5.75973">
        <ele>1278</ele>
        <time>2017-05-03T16:36:51Z</time>
      </trkpt>
      <trkpt lat="44.7632" lon="5.75942">
        <ele>1287</ele>
        <time>2017-05-03T16:36:57Z</time>
      </trkpt>
      <trkpt lat="44.76324" lon="5.75931">
        <ele>1287</ele>
        <time>2017-05-03T16:37:16Z</time>
      </trkpt>
      <trkpt lat="44.76342" lon="5.75913">
        <ele>1284</ele>
        <time>2017-05-03T16:37:21Z</time>
      </trkpt>
      <trkpt lat="44.76358" lon="5.75906">
        <ele>1282</ele>
        <time>2017-05-03T16:37:25Z</time>
      </trkpt>
      <trkpt lat="44.76373" lon="5.75908">
        <ele>1278</ele>
        <time>2017-05-03T16:37:40Z</time>
      </trkpt>
      <trkpt lat="44.76398" lon="5.75891">
        <ele>1273</ele>
        <time>2017-05-03T16:37:45Z</time>
      </trkpt>
      <trkpt lat="44.76413" lon="5.75877">
        <ele>1275</ele>
        <time>2017-05-03T16:37:50Z</time>
      </trkpt>
      <trkpt lat="44.76425" lon="5.75854">
        <ele>1251</ele>
        <time>2017-05-03T16:38:05Z</time>
      </trkpt>
      <trkpt lat="44.76422" lon="5.75805">
        <ele>1259</ele>
        <time>2017-05-03T16:38:22Z</time>
      </trkpt>
      <trkpt lat="44.76414" lon="5.75696">
        <ele>1311</ele>
        <time>2017-05-03T16:38:38Z</time>
      </trkpt>
      <trkpt lat="44.76419" lon="5.7568">
        <ele>1286</ele>
        <time>2017-05-03T16:38:46Z</time>
      </trkpt>
      <trkpt lat="44.76426" lon="5.7567">
        <ele>1289</ele>
        <time>2017-05-03T16:38:55Z</time>
      </trkpt>
      <trkpt lat="44.76438" lon="5.75662">
        <ele>1295</ele>
        <time>2017-05-03T16:39:09Z</time>
      </trkpt>
      <trkpt lat="44.76511" lon="5.75639">
        <ele>1255</ele>
        <time>2017-05-03T16:39:25Z</time>
      </trkpt>
      <trkpt lat="44.76549" lon="5.75611">
        <ele>1254</ele>
        <time>2017-05-03T16:39:34Z</time>
      </trkpt>
      <trkpt lat="44.76594" lon="5.75572">
        <ele>1249</ele>
        <time>2017-05-03T16:39:48Z</time>
      </trkpt>
      <trkpt lat="44.76615" lon="5.75542">
        <ele>1245</ele>
        <time>2017-05-03T16:39:56Z</time>
      </trkpt>
      <trkpt lat="44.76622" lon="5.75511">
        <ele>1247</ele>
        <time>2017-05-03T16:40:03Z</time>
      </trkpt>
      <trkpt lat="44.76622" lon="5.75478">
        <ele>1254</ele>
        <time>2017-05-03T16:40:12Z</time>
      </trkpt>
      <trkpt lat="44.76608" lon="5.75413">
        <ele>1252</ele>
        <time>2017-05-03T16:40:28Z</time>
      </trkpt>
      <trkpt lat="44.76597" lon="5.75342">
        <ele>1244</ele>
        <time>2017-05-03T16:40:32Z</time>
      </trkpt>
      <trkpt lat="44.76592" lon="5.75326">
        <ele>1235</ele>
        <time>2017-05-03T16:40:41Z</time>
      </trkpt>
      <trkpt lat="44.7659" lon="5.75323">
        <ele>1235</ele>
        <time>2017-05-03T16:40:46Z</time>
      </trkpt>
      <trkpt lat="44.76569" lon="5.75321">
        <ele>1248</ele>
        <time>2017-05-03T16:41:03Z</time>
      </trkpt>
      <trkpt lat="44.76526" lon="5.7531">
        <ele>1256</ele>
        <time>2017-05-03T16:41:11Z</time>
      </trkpt>
      <trkpt lat="44.76492" lon="5.75285">
        <ele>1278</ele>
        <time>2017-05-03T16:41:23Z</time>
      </trkpt>
      <trkpt lat="44.76484" lon="5.75275">
        <ele>1276</ele>
        <time>2017-05-03T16:41:42Z</time>
      </trkpt>
      <trkpt lat="44.76477" lon="5.75261">
        <ele>1274</ele>
        <time>2017-05-03T16:41:51Z</time>
      </trkpt>
      <trkpt lat="44.76472" lon="5.75243">
        <ele>1263</ele>
        <time>2017-05-03T16:42:09Z</time>
      </trkpt>
      <trkpt lat="44.76471" lon="5.75224">
        <ele>1263</ele>
        <time>2017-05-03T16:42:28Z</time>
      </trkpt>
      <trkpt lat="44.76476" lon="5.75209">
        <ele>1261</ele>
        <time>2017-05-03T16:42:34Z</time>
      </trkpt>
      <trkpt lat="44.76481" lon="5.75202">
        <ele>1259</ele>
        <time>2017-05-03T16:42:36Z</time>
      </trkpt>
      <trkpt lat="44.76496" lon="5.75194">
        <ele>1253</ele>
        <time>2017-05-03T16:42:45Z</time>
      </trkpt>
      <trkpt lat="44.76503" lon="5.75187">
        <ele>1224</ele>
        <time>2017-05-03T16:43:01Z</time>
      </trkpt>
      <trkpt lat="44.76509" lon="5.75176">
        <ele>1225</ele>
        <time>2017-05-03T16:43:18Z</time>
      </trkpt>
      <trkpt lat="44.76511" lon="5.75156">
        <ele>1215</ele>
        <time>2017-05-03T16:43:30Z</time>
      </trkpt>
      <trkpt lat="44.76502" lon="5.7513">
        <ele>1206</ele>
        <time>2017-05-03T16:43:41Z</time>
      </trkpt>
      <trkpt lat="44.76475" lon="5.75099">
        <ele>1236</ele>
        <time>2017-05-03T16:43:53Z</time>
      </trkpt>
      <trkpt lat="44.76427" lon="5.75055">
        <ele>1231</ele>
        <time>2017-05-03T16:43:57Z</time>
      </trkpt>
      <trkpt lat="44.76388" lon="5.7503">
        <ele>1249</ele>
        <time>2017-05-03T16:44:05Z</time>
      </trkpt>
      <trkpt lat="44.7635" lon="5.75024">
        <ele>1252</ele>
        <time>2017-05-03T16:44:08Z</time>
      </trkpt>
      <trkpt lat="44.76334" lon="5.75017">
        <ele>1249</ele>
        <time>2017-05-03T16:44:14Z</time>
      </trkpt>
      <trkpt lat="44.76328" lon="5.75008">
        <ele>1253</ele>
        <time>2017-05-03T16:44:18Z</time>
      </trkpt>
      <trkpt lat="44.76328" lon="5.75">
        <ele>1241</ele>
        <time>2017-05-03T16:44:30Z</time>
      </trkpt>
      <trkpt lat="44.76334" lon="5.74994">
        <ele>1236</ele>
        <time>2017-05-03T16:44:41Z</time>
      </trkpt>
      <trkpt lat="44.76355" lon="5.74987">
        <ele>1225</ele>
        <time>2017-05-03T16:44:54Z</time>
      </trkpt>
      <trkpt lat="44.76371" lon="5.74972">
        <ele>1219</ele>
        <time>2017-05-03T16:45:14Z</time>
      </trkpt>
      <trkpt lat="44.76398" lon="5.74949">
        <ele>1212</ele>
        <time>2017-05-03T16:45:28Z</time>
      </trkpt>
      <trkpt lat="44.76444" lon="5.74894">
        <ele>1178</ele>
        <time>2017-05-03T16:45:34Z</time>
      </trkpt>
      <trkpt lat="44.76463" lon="5.74866">
        <ele>1172</ele>
        <time>2017-05-03T16:45:45Z</time>
      </trkpt>
      <trkpt lat="44.76471" lon="5.74846">
        <ele>1170</ele>
        <time>2017-05-03T16:46:00Z</time>
      </trkpt>
      <trkpt lat="44.76476" lon="5.74833">
        <ele>1157</ele>
        <time>2017-05-03T16:46:06Z</time>
      </trkpt>
      <trkpt lat="44.76484" lon="5.74828">
        <ele>1158</ele>
        <time>2017-05-03T16:46:18Z</time>
      </trkpt>
      <trkpt lat="44.76487" lon="5.74822">
        <ele>1158</ele>
        <time>2017-05-03T16:46:22Z</time>
      </trkpt>
      <trkpt lat="44.76496" lon="5.74786">
        <ele>1150</ele>
        <time>2017-05-03T16:46:30Z</time>
      </trkpt>
      <trkpt lat="44.7651" lon="5.74767">
        <ele>1146</ele>
        <time>2017-05-03T16:46:41Z</time>
      </trkpt>
      <trkpt lat="44.76516" lon="5.74762">
        <ele>1145</ele>
        <time>2017-05-03T16:47:01Z</time>
      </trkpt>
      <trkpt lat="44.76518" lon="5.74755">
        <ele>1145</ele>
        <time>2017-05-03T16:47:14Z</time>
      </trkpt>
      <trkpt lat="44.7653" lon="5.74732">
        <ele>1135</ele>
        <time>2017-05-03T16:47:19Z</time>
      </trkpt>
      <trkpt lat="44.76547" lon="5.74713">
        <ele>1132</ele>
        <time>2017-05-03T16:47:36Z</time>
      </trkpt>
      <trkpt lat="44.76555" lon="5.74709">
        <ele>1132</ele>
        <time>2017-05-03T16:47:42Z</time>
      </trkpt>
      <trkpt lat="44.76578" lon="5.7462">
        <ele>1118</ele>
        <time>2017-05-03T16:47:58Z</time>
      </trkpt>
      <trkpt lat="44.76609" lon="5.74543">
        <ele>1114</ele>
        <time>2017-05-03T16:48:09Z</time>
      </trkpt>
      <trkpt lat="44.76623" lon="5.74496">
        <ele>1109</ele>
        <time>2017-05-03T16:48:14Z</time>
      </trkpt>
      <trkpt lat="44.76633" lon="5.74451">
        <ele>1108</ele>
        <time>2017-05-03T16:48:18Z</time>
      </trkpt>
      <trkpt lat="44.76634" lon="5.74419">
        <ele>1108</ele>
        <time>2017-05-03T16:48:25Z</time>
      </trkpt>
      <trkpt lat="44.76628" lon="5.74378">
        <ele>1097</ele>
        <time>2017-05-03T16:48:39Z</time>
      </trkpt>
      <trkpt lat="44.76629" lon="5.74339">
        <ele>1095</ele>
        <time>2017-05-03T16:48:53Z</time>
      </trkpt>
      <trkpt lat="44.76633" lon="5.74298">
        <ele>1086</ele>
        <time>2017-05-03T16:49:00Z</time>
      </trkpt>
      <trkpt lat="44.76624" lon="5.74244">
        <ele>1073</ele>
        <time>2017-05-03T16:49:09Z</time>
      </trkpt>
      <trkpt lat="44.76617" lon="5.7418">
        <ele>1066</ele>
        <time>2017-05-03T16:49:23Z</time>
      </trkpt>
      <trkpt lat="44.76608" lon="5.74136">
        <ele>1052</ele>
        <time>2017-05-03T16:49:41Z</time>
      </trkpt>
      <trkpt lat="44.76604" lon="5.74096">
        <ele>1049</ele>
        <time>2017-05-03T16:49:43Z</time>
      </trkpt>
      <trkpt lat="44.76607" lon="5.74093">
        <ele>1049</ele>
        <time>2017-05-03T16:49:49Z</time>
      </trkpt>
      <trkpt lat="44.7661" lon="5.74093">
        <ele>1049</ele>
        <time>2017-05-03T16:50:03Z</time>
      </trkpt>
      <trkpt lat="44.76631" lon="5.7411">
        <ele>1048</ele>
        <time>2017-05-03T16:50:10Z</time>
      </trkpt>
      <trkpt lat="44.76666" lon="5.74167">
        <ele>1067</ele>
        <time>2017-05-03T16:50:22Z</time>
      </trkpt>
      <trkpt lat="44.76689" lon="5.74196">
        <ele>1075</ele>
        <time>2017-05-03T16:50:32Z</time>
      </trkpt>
      <trkpt lat="44.76697" lon="5.74202">
        <ele>1076</ele>
        <time>2017-05-03T16:50:38Z</time>
      </trkpt>
      <trkpt lat="44.76735" lon="5.74208">
        <ele>1075</ele>
        <time>2017-05-03T16:50:55Z</time>
      </trkpt>
      <trkpt lat="44.76738" lon="5.74205">
        <ele>1074</ele>
        <time>2017-05-03T16:51:08Z</time>
      </trkpt>
      <trkpt lat="44.76776" lon="5.7415">
        <ele>1056</ele>
        <time>2017-05-03T16:51:13Z</time>
      </trkpt>
      <trkpt lat="44.76809" lon="5.74105">
        <ele>1051</ele>
        <time>2017-05-03T16:51:16Z</time>
      </trkpt>
      <trkpt lat="44.76822" lon="5.7407">
        <ele>1035</ele>
        <time>2017-05-03T16:51:32Z</time>
      </trkpt>
      <trkpt lat="44.76836" lon="5.74042">
        <ele>1029</ele>
        <time>2017-05-03T16:51:43Z</time>
      </trkpt>
      <trkpt lat="44.76843" lon="5.74037">
        <ele>1028</ele>
        <time>2017-05-03T16:51:58Z</time>
      </trkpt>
      <trkpt lat="44.76862" lon="5.74032">
        <ele>1027</ele>
        <time>2017-05-03T16:52:11Z</time>
      </trkpt>
      <trkpt lat="44.76886" lon="5.74012">
        <ele>1024</ele>
        <time>2017-05-03T16:52:13Z</time>
      </trkpt>
      <trkpt lat="44.76898" lon="5.74003">
        <ele>1022</ele>
        <time>2017-05-03T16:52:25Z</time>
      </trkpt>
      <trkpt lat="44.76902" lon="5.73993">
        <ele>1015</ele>
        <time>2017-05-03T16:52:37Z</time>
      </trkpt>
      <trkpt lat="44.76909" lon="5.73989">
        <ele>1015</ele>
        <time>2017-05-03T16:52:49Z</time>
      </trkpt>
      <trkpt lat="44.76917" lon="5.73981">
        <ele>1009</ele>
        <time>2017-05-03T16:52:52Z</time>
      </trkpt>
      <trkpt lat="44.76927" lon="5.7396">
        <ele>1005</ele>
        <time>2017-05-03T16:53:03Z</time>
      </trkpt>
      <trkpt lat="44.76936" lon="5.73949">
        <ele>1003</ele>
        <time>2017-05-03T16:53:17Z</time>
      </trkpt>
      <trkpt lat="44.76947" lon="5.73946">
        <ele>1002</ele>
        <time>2017-05-03T16:53:33Z</time>
      </trkpt>
      <trkpt lat="44.76964" lon="5.73937">
        <ele>1000</ele>
        <time>2017-05-03T16:53:35Z</time>
      </trkpt>
      <trkpt lat="44.76992" lon="5.73914">
        <ele>994</ele>
        <time>2017-05-03T16:53:50Z</time>
      </trkpt>
      <trkpt lat="44.77013" lon="5.73888">
        <ele>984</ele>
        <time>2017-05-03T16:54:08Z</time>
      </trkpt>
      <trkpt lat="44.77019" lon="5.73884">
        <ele>983</ele>
        <time>2017-05-03T16:54:25Z</time>
      </trkpt>
      <trkpt lat="44.77024" lon="5.73881">
        <ele>982</ele>
        <time>2017-05-03T16:54:37Z</time>
      </trkpt>
      <trkpt lat="44.77029" lon="5.73872">
        <ele>981</ele>
        <time>2017-05-03T16:54:49Z</time>
      </trkpt>
      <trkpt lat="44.7703" lon="5.73864">
        <ele>980</ele>
        <time>2017-05-03T16:54:51Z</time>
      </trkpt>
      <trkpt lat="44.77032" lon="5.73857">
        <ele>980</ele>
        <time>2017-05-03T16:54:57Z</time>
      </trkpt>
      <trkpt lat="44.77051" lon="5.73842">
        <ele>977</ele>
        <time>2017-05-03T16:55:02Z</time>
      </trkpt>
      <trkpt lat="44.77058" lon="5.73837">
        <ele>976</ele>
        <time>2017-05-03T16:55:11Z</time>
      </trkpt>
      <trkpt lat="44.7706" lon="5.73833">
        <ele>972</ele>
        <time>2017-05-03T16:55:19Z</time>
      </trkpt>
      <trkpt lat="44.77064" lon="5.73819">
        <ele>971</ele>
        <time>2017-05-03T16:55:39Z</time>
      </trkpt>
      <trkpt lat="44.77073" lon="5.73803">
        <ele>971</ele>
        <time>2017-05-03T16:55:49Z</time>
      </trkpt>
      <trkpt lat="44.77086" lon="5.73787">
        <ele>964</ele>
        <time>2017-05-03T16:56:00Z</time>
      </trkpt>
      <trkpt lat="44.7709" lon="5.73785">
        <ele>964</ele>
        <time>2017-05-03T16:56:20Z</time>
      </trkpt>
      <trkpt lat="44.77089" lon="5.73779">
        <ele>964</ele>
        <time>2017-05-03T16:56:26Z</time>
      </trkpt>
      <trkpt lat="44.77089" lon="5.7376">
        <ele>964</ele>
        <time>2017-05-03T16:56:42Z</time>
      </trkpt>
      <trkpt lat="44.77089" lon="5.73738">
        <ele>961</ele>
        <time>2017-05-03T16:56:54Z</time>
      </trkpt>
      <trkpt lat="44.771" lon="5.73723">
        <ele>959</ele>
        <time>2017-05-03T16:57:14Z</time>
      </trkpt>
      <trkpt lat="44.77107" lon="5.73708">
        <ele>957</ele>
        <time>2017-05-03T16:57:26Z</time>
      </trkpt>
      <trkpt lat="44.77137" lon="5.73664">
        <ele>951</ele>
        <time>2017-05-03T16:57:30Z</time>
      </trkpt>
      <trkpt lat="44.77147" lon="5.73637">
        <ele>950</ele>
        <time>2017-05-03T16:57:40Z</time>
      </trkpt>
      <trkpt lat="44.77156" lon="5.73617">
        <ele>948</ele>
        <time>2017-05-03T16:58:00Z</time>
      </trkpt>
      <trkpt lat="44.77164" lon="5.73602">
        <ele>947</ele>
        <time>2017-05-03T16:58:11Z</time>
      </trkpt>
      <trkpt lat="44.77174" lon="5.73564">
        <ele>942</ele>
        <time>2017-05-03T16:58:29Z</time>
      </trkpt>
      <trkpt lat="44.77183" lon="5.73526">
        <ele>938</ele>
        <time>2017-05-03T16:58:41Z</time>
      </trkpt>
      <trkpt lat="44.77194" lon="5.73492">
        <ele>930</ele>
        <time>2017-05-03T16:58:50Z</time>
      </trkpt>
      <trkpt lat="44.77207" lon="5.73465">
        <ele>928</ele>
        <time>2017-05-03T16:58:57Z</time>
      </trkpt>
      <trkpt lat="44.77218" lon="5.73449">
        <ele>928</ele>
        <time>2017-05-03T16:59:04Z</time>
      </trkpt>
      <trkpt lat="44.77236" lon="5.73439">
        <ele>927</ele>
        <time>2017-05-03T16:59:22Z</time>
      </trkpt>
      <trkpt lat="44.77267" lon="5.73418">
        <ele>928</ele>
        <time>2017-05-03T16:59:39Z</time>
      </trkpt>
      <trkpt lat="44.77284" lon="5.73403">
        <ele>923</ele>
        <time>2017-05-03T16:59:55Z</time>
      </trkpt>
      <trkpt lat="44.77294" lon="5.73398">
        <ele>923</ele>
        <time>2017-05-03T17:00:00Z</time>
      </trkpt>
      <trkpt lat="44.77316" lon="5.73389">
        <ele>922</ele>
        <time>2017-05-03T17:00:16Z</time>
      </trkpt>
      <trkpt lat="44.77324" lon="5.73378">
        <ele>922</ele>
        <time>2017-05-03T17:00:33Z</time>
      </trkpt>
      <trkpt lat="44.77324" lon="5.73365">
        <ele>921</ele>
        <time>2017-05-03T17:00:46Z</time>
      </trkpt>
      <trkpt lat="44.7732" lon="5.73343">
        <ele>920</ele>
        <time>2017-05-03T17:01:04Z</time>
      </trkpt>
      <trkpt lat="44.7732" lon="5.73322">
        <ele>917</ele>
        <time>2017-05-03T17:01:17Z</time>
      </trkpt>
      <trkpt lat="44.77324" lon="5.7331">
        <ele>916</ele>
        <time>2017-05-03T17:01:20Z</time>
      </trkpt>
      <trkpt lat="44.77328" lon="5.73304">
        <ele>916</ele>
        <time>2017-05-03T17:01:23Z</time>
      </trkpt>
      <trkpt lat="44.77353" lon="5.73279">
        <ele>914</ele>
        <time>2017-05-03T17:01:25Z</time>
      </trkpt>
      <trkpt lat="44.7738" lon="5.73256">
        <ele>913</ele>
        <time>2017-05-03T17:01:41Z</time>
      </trkpt>
      <trkpt lat="44.77388" lon="5.73248">
        <ele>910</ele>
        <time>2017-05-03T17:01:50Z</time>
      </trkpt>
      <trkpt lat="44.77394" lon="5.73239">
        <ele>910</ele>
        <time>2017-05-03T17:01:52Z</time>
      </trkpt>
      <trkpt lat="44.77394" lon="5.73232">
        <ele>910</ele>
        <time>2017-05-03T17:02:05Z</time>
      </trkpt>
      <trkpt lat="44.77393" lon="5.73219">
        <ele>910</ele>
        <time>2017-05-03T17:02:08Z</time>
      </trkpt>
      <trkpt lat="44.77386" lon="5.73208">
        <ele>909</ele>
        <time>2017-05-03T17:02:12Z</time>
      </trkpt>
      <trkpt lat="44.7738" lon="5.73195">
        <ele>909</ele>
        <time>2017-05-03T17:02:15Z</time>
      </trkpt>
      <trkpt lat="44.77376" lon="5.73178">
        <ele>909</ele>
        <time>2017-05-03T17:02:31Z</time>
      </trkpt>
      <trkpt lat="44.77375" lon="5.7316">
        <ele>904</ele>
        <time>2017-05-03T17:02:38Z</time>
      </trkpt>
      <trkpt lat="44.77378" lon="5.73148">
        <ele>904</ele>
        <time>2017-05-03T17:02:55Z</time>
      </trkpt>
      <trkpt lat="44.77391" lon="5.73122">
        <ele>904</ele>
        <time>2017-05-03T17:03:04Z</time>
      </trkpt>
      <trkpt lat="44.77421" lon="5.73058">
        <ele>900</ele>
        <time>2017-05-03T17:03:13Z</time>
      </trkpt>
      <trkpt lat="44.77444" lon="5.72991">
        <ele>898</ele>
        <time>2017-05-03T17:03:22Z</time>
      </trkpt>
      <trkpt lat="44.77448" lon="5.72966">
        <ele>897</ele>
        <time>2017-05-03T17:03:24Z</time>
      </trkpt>
      <trkpt lat="44.77447" lon="5.7295">
        <ele>897</ele>
        <time>2017-05-03T17:03:35Z</time>
      </trkpt>
      <trkpt lat="44.77454" lon="5.7295">
        <ele>897</ele>
        <time>2017-05-03T17:03:46Z</time>
      </trkpt>
      <trkpt lat="44.77459" lon="5.72952">
        <ele>897</ele>
        <time>2017-05-03T17:03:56Z</time>
      </trkpt>
      <trkpt lat="44.77458" lon="5.72933">
        <ele>897</ele>
        <time>2017-05-03T17:04:14Z</time>
      </trkpt>
      <trkpt lat="44.77458" lon="5.72897">
        <ele>897</ele>
        <time>2017-05-03T17:04:25Z</time>
      </trkpt>
      <trkpt lat="44.77456" lon="5.7287">
        <ele>897</ele>
        <time>2017-05-03T17:04:44Z</time>
      </trkpt>
      <trkpt lat="44.77461" lon="5.72846">
        <ele>897</ele>
        <time>2017-05-03T17:05:04Z</time>
      </trkpt>
      <trkpt lat="44.77464" lon="5.72781">
        <ele>897</ele>
        <time>2017-05-03T17:05:07Z</time>
      </trkpt>
      <trkpt lat="44.77471" lon="5.72728">
        <ele>898</ele>
        <time>2017-05-03T17:05:22Z</time>
      </trkpt>
      <trkpt lat="44.77471" lon="5.72709">
        <ele>898</ele>
        <time>2017-05-03T17:05:38Z</time>
      </trkpt>
      <trkpt lat="44.77467" lon="5.72672">
        <ele>899</ele>
        <time>2017-05-03T17:05:58Z</time>
      </trkpt>
      <trkpt lat="44.77462" lon="5.72633">
        <ele>902</ele>
        <time>2017-05-03T17:06:12Z</time>
      </trkpt>
      <trkpt lat="44.77461" lon="5.72603">
        <ele>903</ele>
        <time>2017-05-03T17:06:18Z</time>
      </trkpt>
      <trkpt lat="44.7746" lon="5.72588">
        <ele>903</ele>
        <time>2017-05-03T17:06:31Z</time>
      </trkpt>
      <trkpt lat="44.77456" lon="5.72574">
        <ele>906</ele>
        <time>2017-05-03T17:06:50Z</time>
      </trkpt>
      <trkpt lat="44.77445" lon="5.72549">
        <ele>905</ele>
        <time>2017-05-03T17:07:04Z</time>
      </trkpt>
      <trkpt lat="44.77437" lon="5.72518">
        <ele>906</ele>
        <time>2017-05-03T17:07:13Z</time>
      </trkpt>
      <trkpt lat="44.77434" lon="5.72503">
        <ele>907</ele>
        <time>2017-05-03T17:07:25Z</time>
      </trkpt>
      <trkpt lat="44.77434" lon="5.72487">
        <ele>906</ele>
        <time>2017-05-03T17:07:41Z</time>
      </trkpt>
      <trkpt lat="44.77437" lon="5.72455">
        <ele>904</ele>
        <time>2017-05-03T17:07:48Z</time>
      </trkpt>
      <trkpt lat="44.7744" lon="5.72425">
        <ele>903</ele>
        <time>2017-05-03T17:08:07Z</time>
      </trkpt>
      <trkpt lat="44.77446" lon="5.72388">
        <ele>900</ele>
        <time>2017-05-03T17:08:24Z</time>
      </trkpt>
      <trkpt lat="44.77456" lon="5.72352">
        <ele>899</ele>
        <time>2017-05-03T17:08:43Z</time>
      </trkpt>
      <trkpt lat="44.77466" lon="5.72326">
        <ele>897</ele>
        <time>2017-05-03T17:08:57Z</time>
      </trkpt>
      <trkpt lat="44.77471" lon="5.72315">
        <ele>897</ele>
        <time>2017-05-03T17:09:17Z</time>
      </trkpt>
      <trkpt lat="44.77473" lon="5.72301">
        <ele>897</ele>
        <time>2017-05-03T17:09:28Z</time>
      </trkpt>
      <trkpt lat="44.77478" lon="5.72274">
        <ele>897</ele>
        <time>2017-05-03T17:09:31Z</time>
      </trkpt>
      <trkpt lat="44.77488" lon="5.72242">
        <ele>896</ele>
        <time>2017-05-03T17:09:39Z</time>
      </trkpt>
      <trkpt lat="44.77499" lon="5.7221">
        <ele>894</ele>
        <time>2017-05-03T17:09:43Z</time>
      </trkpt>
      <trkpt lat="44.77505" lon="5.72197">
        <ele>893</ele>
        <time>2017-05-03T17:10:01Z</time>
      </trkpt>
      <trkpt lat="44.77514" lon="5.72186">
        <ele>893</ele>
        <time>2017-05-03T17:10:18Z</time>
      </trkpt>
      <trkpt lat="44.7753" lon="5.72161">
        <ele>892</ele>
        <time>2017-05-03T17:10:25Z</time>
      </trkpt>
      <trkpt lat="44.77543" lon="5.72132">
        <ele>890</ele>
        <time>2017-05-03T17:10:42Z</time>
      </trkpt>
      <trkpt lat="44.77552" lon="5.72104">
        <ele>890</ele>
        <time>2017-05-03T17:10:52Z</time>
      </trkpt>
      <trkpt lat="44.7756" lon="5.72071">
        <ele>890</ele>
        <time>2017-05-03T17:11:07Z</time>
      </trkpt>
      <trkpt lat="44.77572" lon="5.72038">
        <ele>891</ele>
        <time>2017-05-03T17:11:12Z</time>
      </trkpt>
      <trkpt lat="44.7758" lon="5.72005">
        <ele>893</ele>
        <time>2017-05-03T17:11:19Z</time>
      </trkpt>
      <trkpt lat="44.77585" lon="5.71967">
        <ele>887</ele>
        <time>2017-05-03T17:11:26Z</time>
      </trkpt>
      <trkpt lat="44.77588" lon="5.71926">
        <ele>889</ele>
        <time>2017-05-03T17:11:29Z</time>
      </trkpt>
      <trkpt lat="44.77585" lon="5.71889">
        <ele>886</ele>
        <time>2017-05-03T17:11:38Z</time>
      </trkpt>
      <trkpt lat="44.77582" lon="5.71853">
        <ele>886</ele>
        <time>2017-05-03T17:11:46Z</time>
      </trkpt>
      <trkpt lat="44.7758" lon="5.71827">
        <ele>884</ele>
        <time>2017-05-03T17:11:50Z</time>
      </trkpt>
      <trkpt lat="44.77582" lon="5.71811">
        <ele>881</ele>
        <time>2017-05-03T17:12:03Z</time>
      </trkpt>
      <trkpt lat="44.77588" lon="5.71797">
        <ele>882</ele>
        <time>2017-05-03T17:12:05Z</time>
      </trkpt>
      <trkpt lat="44.77596" lon="5.71782">
        <ele>881</ele>
        <time>2017-05-03T17:12:07Z</time>
      </trkpt>
      <trkpt lat="44.77617" lon="5.7175">
        <ele>880</ele>
        <time>2017-05-03T17:12:20Z</time>
      </trkpt>
      <trkpt lat="44.7764" lon="5.71719">
        <ele>879</ele>
        <time>2017-05-03T17:12:31Z</time>
      </trkpt>
      <trkpt lat="44.77654" lon="5.71696">
        <ele>879</ele>
        <time>2017-05-03T17:12:33Z</time>
      </trkpt>
      <trkpt lat="44.77673" lon="5.71661">
        <ele>880</ele>
        <time>2017-05-03T17:12:37Z</time>
      </trkpt>
      <trkpt lat="44.77713" lon="5.71584">
        <ele>879</ele>
        <time>2017-05-03T17:12:55Z</time>
      </trkpt>
      <trkpt lat="44.77722" lon="5.71569">
        <ele>878</ele>
        <time>2017-05-03T17:13:13Z</time>
      </trkpt>
      <trkpt lat="44.77736" lon="5.71553">
        <ele>877</ele>
        <time>2017-05-03T17:13:23Z</time>
      </trkpt>
      <trkpt lat="44.77783" lon="5.71509">
        <ele>875</ele>
        <time>2017-05-03T17:13:39Z</time>
      </trkpt>
      <trkpt lat="44.77794" lon="5.71487">
        <ele>873</ele>
        <time>2017-05-03T17:13:52Z</time>
      </trkpt>
      <trkpt lat="44.77804" lon="5.71458">
        <ele>872</ele>
        <time>2017-05-03T17:14:06Z</time>
      </trkpt>
      <trkpt lat="44.77821" lon="5.71432">
        <ele>872</ele>
        <time>2017-05-03T17:14:11Z</time>
      </trkpt>
      <trkpt lat="44.77837" lon="5.71401">
        <ele>871</ele>
        <time>2017-05-03T17:14:27Z</time>
      </trkpt>
      <trkpt lat="44.77844" lon="5.7138">
        <ele>870</ele>
        <time>2017-05-03T17:14:29Z</time>
      </trkpt>
      <trkpt lat="44.77838" lon="5.71352">
        <ele>869</ele>
        <time>2017-05-03T17:14:49Z</time>
      </trkpt>
      <trkpt lat="44.77829" lon="5.71321">
        <ele>865</ele>
        <time>2017-05-03T17:14:51Z</time>
      </trkpt>
      <trkpt lat="44.77827" lon="5.71303">
        <ele>863</ele>
        <time>2017-05-03T17:15:05Z</time>
      </trkpt>
      <trkpt lat="44.77828" lon="5.7129">
        <ele>862</ele>
        <time>2017-05-03T17:15:16Z</time>
      </trkpt>
      <trkpt lat="44.77831" lon="5.71276">
        <ele>862</ele>
        <time>2017-05-03T17:15:34Z</time>
      </trkpt>
      <trkpt lat="44.77839" lon="5.7126">
        <ele>863</ele>
        <time>2017-05-03T17:15:37Z</time>
      </trkpt>
      <trkpt lat="44.77851" lon="5.7123">
        <ele>858</ele>
        <time>2017-05-03T17:15:53Z</time>
      </trkpt>
      <trkpt lat="44.77854" lon="5.71189">
        <ele>856</ele>
        <time>2017-05-03T17:15:58Z</time>
      </trkpt>
      <trkpt lat="44.77854" lon="5.71159">
        <ele>851</ele>
        <time>2017-05-03T17:16:15Z</time>
      </trkpt>
      <trkpt lat="44.77857" lon="5.71143">
        <ele>850</ele>
        <time>2017-05-03T17:16:32Z</time>
      </trkpt>
      <trkpt lat="44.77862" lon="5.71132">
        <ele>849</ele>
        <time>2017-05-03T17:16:50Z</time>
      </trkpt>
      <trkpt lat="44.77868" lon="5.71128">
        <ele>849</ele>
        <time>2017-05-03T17:17:10Z</time>
      </trkpt>
      <trkpt lat="44.77878" lon="5.71128">
        <ele>849</ele>
        <time>2017-05-03T17:17:25Z</time>
      </trkpt>
      <trkpt lat="44.779" lon="5.71133">
        <ele>848</ele>
        <time>2017-05-03T17:17:34Z</time>
      </trkpt>
      <trkpt lat="44.77909" lon="5.71132">
        <ele>848</ele>
        <time>2017-05-03T17:17:42Z</time>
      </trkpt>
      <trkpt lat="44.77919" lon="5.71127">
        <ele>845</ele>
        <time>2017-05-03T17:17:49Z</time>
      </trkpt>
      <trkpt lat="44.77928" lon="5.71122">
        <ele>844</ele>
        <time>2017-05-03T17:17:56Z</time>
      </trkpt>
      <trkpt lat="44.77935" lon="5.71124">
        <ele>844</ele>
        <time>2017-05-03T17:17:58Z</time>
      </trkpt>
      <trkpt lat="44.77943" lon="5.71125">
        <ele>844</ele>
        <time>2017-05-03T17:18:07Z</time>
      </trkpt>
      <trkpt lat="44.7795" lon="5.71118">
        <ele>844</ele>
        <time>2017-05-03T17:18:23Z</time>
      </trkpt>
      <trkpt lat="44.77961" lon="5.71083">
        <ele>838</ele>
        <time>2017-05-03T17:18:31Z</time>
      </trkpt>
      <trkpt lat="44.77974" lon="5.71055">
        <ele>837</ele>
        <time>2017-05-03T17:18:36Z</time>
      </trkpt>
      <trkpt lat="44.77987" lon="5.71016">
        <ele>834</ele>
        <time>2017-05-03T17:18:39Z</time>
      </trkpt>
      <trkpt lat="44.77997" lon="5.70977">
        <ele>830</ele>
        <time>2017-05-03T17:18:45Z</time>
      </trkpt>
      <trkpt lat="44.78006" lon="5.70933">
        <ele>826</ele>
        <time>2017-05-03T17:18:50Z</time>
      </trkpt>
      <trkpt lat="44.78024" lon="5.70876">
        <ele>821</ele>
        <time>2017-05-03T17:19:01Z</time>
      </trkpt>
      <trkpt lat="44.78039" lon="5.70841">
        <ele>819</ele>
        <time>2017-05-03T17:19:13Z</time>
      </trkpt>
      <trkpt lat="44.78062" lon="5.70803">
        <ele>815</ele>
        <time>2017-05-03T17:19:28Z</time>
      </trkpt>
      <trkpt lat="44.78088" lon="5.70769">
        <ele>813</ele>
        <time>2017-05-03T17:19:47Z</time>
      </trkpt>
      <trkpt lat="44.78102" lon="5.70746">
        <ele>811</ele>
        <time>2017-05-03T17:19:55Z</time>
      </trkpt>
      <trkpt lat="44.7811" lon="5.70727">
        <ele>811</ele>
        <time>2017-05-03T17:20:12Z</time>
      </trkpt>
      <trkpt lat="44.78141" lon="5.70662">
        <ele>810</ele>
        <time>2017-05-03T17:20:18Z</time>
      </trkpt>
      <trkpt lat="44.78167" lon="5.706">
        <ele>808</ele>
        <time>2017-05-03T17:20:30Z</time>
      </trkpt>
      <trkpt lat="44.78194" lon="5.70549">
        <ele>808</ele>
        <time>2017-05-03T17:20:38Z</time>
      </trkpt>
      <trkpt lat="44.78209" lon="5.70516">
        <ele>808</ele>
        <time>2017-05-03T17:20:48Z</time>
      </trkpt>
      <trkpt lat="44.78212" lon="5.70513">
        <ele>808</ele>
        <time>2017-05-03T17:21:01Z</time>
      </trkpt>
      <trkpt lat="44.78218" lon="5.70514">
        <ele>808</ele>
        <time>2017-05-03T17:21:15Z</time>
      </trkpt>
      <trkpt lat="44.78246" lon="5.70431">
        <ele>802</ele>
        <time>2017-05-03T17:21:26Z</time>
      </trkpt>
      <trkpt lat="44.7827" lon="5.70364">
        <ele>796</ele>
        <time>2017-05-03T17:21:32Z</time>
      </trkpt>
      <trkpt lat="44.78282" lon="5.70344">
        <ele>795</ele>
        <time>2017-05-03T17:21:52Z</time>
      </trkpt>
      <trkpt lat="44.78306" lon="5.70303">
        <ele>792</ele>
        <time>2017-05-03T17:22:03Z</time>
      </trkpt>
      <trkpt lat="44.78314" lon="5.70275">
        <ele>791</ele>
        <time>2017-05-03T17:22:10Z</time>
      </trkpt>
      <trkpt lat="44.78316" lon="5.70248">
        <ele>788</ele>
        <time>2017-05-03T17:22:16Z</time>
      </trkpt>
      <trkpt lat="44.78308" lon="5.70187">
        <ele>787</ele>
        <time>2017-05-03T17:22:30Z</time>
      </trkpt>
      <trkpt lat="44.78305" lon="5.70146">
        <ele>785</ele>
        <time>2017-05-03T17:22:42Z</time>
      </trkpt>
      <trkpt lat="44.78308" lon="5.70076">
        <ele>783</ele>
        <time>2017-05-03T17:22:59Z</time>
      </trkpt>
      <trkpt lat="44.78316" lon="5.70007">
        <ele>781</ele>
        <time>2017-05-03T17:23:13Z</time>
      </trkpt>
      <trkpt lat="44.78327" lon="5.69946">
        <ele>781</ele>
        <time>2017-05-03T17:23:23Z</time>
      </trkpt>
      <trkpt lat="44.78352" lon="5.69874">
        <ele>777</ele>
        <time>2017-05-03T17:23:41Z</time>
      </trkpt>
      <trkpt lat="44.78386" lon="5.69773">
        <ele>775</ele>
        <time>2017-05-03T17:23:52Z</time>
      </trkpt>
      <trkpt lat="44.78393" lon="5.69758">
        <ele>774</ele>
        <time>2017-05-03T17:24:00Z</time>
      </trkpt>
      <trkpt lat="44.78403" lon="5.69742">
        <ele>774</ele>
        <time>2017-05-03T17:24:14Z</time>
      </trkpt>
      <trkpt lat="44.78427" lon="5.69708">
        <ele>772</ele>
        <time>2017-05-03T17:24:32Z</time>
      </trkpt>
      <trkpt lat="44.78461" lon="5.69668">
        <ele>772</ele>
        <time>2017-05-03T17:24:41Z</time>
      </trkpt>
      <trkpt lat="44.78514" lon="5.6961">
        <ele>772</ele>
        <time>2017-05-03T17:25:01Z</time>
      </trkpt>
      <trkpt lat="44.78521" lon="5.69599">
        <ele>772</ele>
        <time>2017-05-03T17:25:18Z</time>
      </trkpt>
      <trkpt lat="44.78543" lon="5.69596">
        <ele>772</ele>
        <time>2017-05-03T17:25:35Z</time>
      </trkpt>
      <trkpt lat="44.78595" lon="5.6959">
        <ele>772</ele>
        <time>2017-05-03T17:25:42Z</time>
      </trkpt>
      <trkpt lat="44.78675" lon="5.69584">
        <ele>772</ele>
        <time>2017-05-03T17:25:58Z</time>
      </trkpt>
      <trkpt lat="44.78717" lon="5.69581">
        <ele>770</ele>
        <time>2017-05-03T17:26:13Z</time>
      </trkpt>
      <trkpt lat="44.78751" lon="5.69572">
        <ele>770</ele>
        <time>2017-05-03T17:26:18Z</time>
      </trkpt>
      <trkpt lat="44.78814" lon="5.69554">
        <ele>767</ele>
        <time>2017-05-03T17:26:31Z</time>
      </trkpt>
      <trkpt lat="44.78839" lon="5.69544">
        <ele>764</ele>
        <time>2017-05-03T17:26:44Z</time>
      </trkpt>
      <trkpt lat="44.78848" lon="5.69536">
        <ele>764</ele>
        <time>2017-05-03T17:27:02Z</time>
      </trkpt>
      <trkpt lat="44.78857" lon="5.69522">
        <ele>764</ele>
        <time>2017-05-03T17:27:22Z</time>
      </trkpt>
      <trkpt lat="44.78875" lon="5.69507">
        <ele>764</ele>
        <time>2017-05-03T17:27:35Z</time>
      </trkpt>
      <trkpt lat="44.78889" lon="5.69504">
        <ele>763</ele>
        <time>2017-05-03T17:27:47Z</time>
      </trkpt>
      <trkpt lat="44.78912" lon="5.69505">
        <ele>763</ele>
        <time>2017-05-03T17:28:07Z</time>
      </trkpt>
      <trkpt lat="44.78934" lon="5.69501">
        <ele>760</ele>
        <time>2017-05-03T17:28:10Z</time>
      </trkpt>
      <trkpt lat="44.7896" lon="5.69497">
        <ele>758</ele>
        <time>2017-05-03T17:28:14Z</time>
      </trkpt>
      <trkpt lat="44.78985" lon="5.69495">
        <ele>757</ele>
        <time>2017-05-03T17:28:17Z</time>
      </trkpt>
      <trkpt lat="44.79009" lon="5.69492">
        <ele>756</ele>
        <time>2017-05-03T17:28:31Z</time>
      </trkpt>
      <trkpt lat="44.7903" lon="5.69483">
        <ele>756</ele>
        <time>2017-05-03T17:28:45Z</time>
      </trkpt>
      <trkpt lat="44.79056" lon="5.69466">
        <ele>756</ele>
        <time>2017-05-03T17:28:59Z</time>
      </trkpt>
      <trkpt lat="44.79071" lon="5.69451">
        <ele>756</ele>
        <time>2017-05-03T17:29:10Z</time>
      </trkpt>
      <trkpt lat="44.79077" lon="5.69446">
        <ele>756</ele>
        <time>2017-05-03T17:29:24Z</time>
      </trkpt>
      <trkpt lat="44.79074" lon="5.69436">
        <ele>756</ele>
        <time>2017-05-03T17:29:42Z</time>
      </trkpt>
      <trkpt lat="44.79069" lon="5.69422">
        <ele>756</ele>
        <time>2017-05-03T17:29:59Z</time>
      </trkpt>
      <trkpt lat="44.79062" lon="5.69414">
        <ele>753</ele>
        <time>2017-05-03T17:30:14Z</time>
      </trkpt>
      <trkpt lat="44.79045" lon="5.69403">
        <ele>752</ele>
        <time>2017-05-03T17:30:30Z</time>
      </trkpt>
      <trkpt lat="44.79017" lon="5.69391">
        <ele>751</ele>
        <time>2017-05-03T17:30:43Z</time>
      </trkpt>
      <trkpt lat="44.7898" lon="5.69372">
        <ele>751</ele>
        <time>2017-05-03T17:31:02Z</time>
      </trkpt>
      <trkpt lat="44.78959" lon="5.6935">
        <ele>750</ele>
        <time>2017-05-03T17:31:12Z</time>
      </trkpt>
      <trkpt lat="44.78943" lon="5.69322">
        <ele>746</ele>
        <time>2017-05-03T17:31:23Z</time>
      </trkpt>
      <trkpt lat="44.78938" lon="5.69308">
        <ele>745</ele>
        <time>2017-05-03T17:31:29Z</time>
      </trkpt>
      <trkpt lat="44.7893" lon="5.69263">
        <ele>744</ele>
        <time>2017-05-03T17:31:45Z</time>
      </trkpt>
      <trkpt lat="44.78914" lon="5.69146">
        <ele>742</ele>
        <time>2017-05-03T17:31:58Z</time>
      </trkpt>
      <trkpt lat="44.78896" lon="5.69055">
        <ele>741</ele>
        <time>2017-05-03T17:32:05Z</time>
      </trkpt>
      <trkpt lat="44.78817" lon="5.68713">
        <ele>738</ele>
        <time>2017-05-03T17:32:19Z</time>
      </trkpt>
      <trkpt lat="44.78786" lon="5.68589">
        <ele>735</ele>
        <time>2017-05-03T17:32:37Z</time>
      </trkpt>
      <trkpt lat="44.78778" lon="5.68567">
        <ele>731</ele>
        <time>2017-05-03T17:32:46Z</time>
      </trkpt>
      <trkpt lat="44.78766" lon="5.68558">
        <ele>731</ele>
        <time>2017-05-03T17:32:48Z</time>
      </trkpt>
      <trkpt lat="44.78766" lon="5.68535">
        <ele>730</ele>
        <time>2017-05-03T17:33:00Z</time>
      </trkpt>
      <trkpt lat="44.7877" lon="5.68524">
        <ele>729</ele>
        <time>2017-05-03T17:33:05Z</time>
      </trkpt>
      <trkpt lat="44.78776" lon="5.68517">
        <ele>729</ele>
        <time>2017-05-03T17:33:19Z</time>
      </trkpt>
      <trkpt lat="44.78796" lon="5.68504">
        <ele>730</ele>
        <time>2017-05-03T17:33:25Z</time>
      </trkpt>
      <trkpt lat="44.78792" lon="5.68498">
        <ele>724</ele>
        <time>2017-05-03T17:33:45Z</time>
      </trkpt>
      <trkpt lat="44.78753" lon="5.68479">
        <ele>723</ele>
        <time>2017-05-03T17:33:47Z</time>
      </trkpt>
      <trkpt lat="44.78716" lon="5.68438">
        <ele>715</ele>
        <time>2017-05-03T17:33:56Z</time>
      </trkpt>
      <trkpt lat="44.78698" lon="5.68412">
        <ele>707</ele>
        <time>2017-05-03T17:34:06Z</time>
      </trkpt>
      <trkpt lat="44.78686" lon="5.68397">
        <ele>706</ele>
        <time>2017-05-03T17:34:20Z</time>
      </trkpt>
      <trkpt lat="44.78672" lon="5.68388">
        <ele>706</ele>
        <time>2017-05-03T17:34:40Z</time>
      </trkpt>
      <trkpt lat="44.78668" lon="5.68377">
        <ele>705</ele>
        <time>2017-05-03T17:35:00Z</time>
      </trkpt>
      <trkpt lat="44.78667" lon="5.68355">
        <ele>703</ele>
        <time>2017-05-03T17:35:17Z</time>
      </trkpt>
      <trkpt lat="44.78663" lon="5.68342">
        <ele>697</ele>
        <time>2017-05-03T17:35:26Z</time>
      </trkpt>
      <trkpt lat="44.78653" lon="5.68312">
        <ele>689</ele>
        <time>2017-05-03T17:35:40Z</time>
      </trkpt>
      <trkpt lat="44.7865" lon="5.68297">
        <ele>687</ele>
        <time>2017-05-03T17:35:56Z</time>
      </trkpt>
      <trkpt lat="44.78644" lon="5.68285">
        <ele>685</ele>
        <time>2017-05-03T17:36:02Z</time>
      </trkpt>
      <trkpt lat="44.78637" lon="5.68273">
        <ele>684</ele>
        <time>2017-05-03T17:36:21Z</time>
      </trkpt>
      <trkpt lat="44.78631" lon="5.68269">
        <ele>683</ele>
        <time>2017-05-03T17:36:36Z</time>
      </trkpt>
      <trkpt lat="44.7862" lon="5.68271">
        <ele>683</ele>
        <time>2017-05-03T17:36:41Z</time>
      </trkpt>
      <trkpt lat="44.78609" lon="5.68278">
        <ele>683</ele>
        <time>2017-05-03T17:36:46Z</time>
      </trkpt>
      <trkpt lat="44.78604" lon="5.68279">
        <ele>683</ele>
        <time>2017-05-03T17:37:02Z</time>
      </trkpt>
      <trkpt lat="44.78596" lon="5.68271">
        <ele>681</ele>
        <time>2017-05-03T17:37:12Z</time>
      </trkpt>
      <trkpt lat="44.78594" lon="5.68265">
        <ele>681</ele>
        <time>2017-05-03T17:37:30Z</time>
      </trkpt>
      <trkpt lat="44.78595" lon="5.68251">
        <ele>680</ele>
        <time>2017-05-03T17:37:45Z</time>
      </trkpt>
      <trkpt lat="44.78602" lon="5.68234">
        <ele>676</ele>
        <time>2017-05-03T17:37:53Z</time>
      </trkpt>
      <trkpt lat="44.78606" lon="5.6822">
        <ele>675</ele>
        <time>2017-05-03T17:37:58Z</time>
      </trkpt>
      <trkpt lat="44.78605" lon="5.68207">
        <ele>674</ele>
        <time>2017-05-03T17:38:12Z</time>
      </trkpt>
      <trkpt lat="44.786" lon="5.68196">
        <ele>674</ele>
        <time>2017-05-03T17:38:20Z</time>
      </trkpt>
      <trkpt lat="44.7859" lon="5.68188">
        <ele>673</ele>
        <time>2017-05-03T17:38:25Z</time>
      </trkpt>
      <trkpt lat="44.78541" lon="5.68175">
        <ele>675</ele>
        <time>2017-05-03T17:38:41Z</time>
      </trkpt>
      <trkpt lat="44.78504" lon="5.68168">
        <ele>679</ele>
        <time>2017-05-03T17:38:48Z</time>
      </trkpt>
      <trkpt lat="44.78496" lon="5.68167">
        <ele>680</ele>
        <time>2017-05-03T17:39:04Z</time>
      </trkpt>
      <trkpt lat="44.78478" lon="5.68171">
        <ele>680</ele>
        <time>2017-05-03T17:39:20Z</time>
      </trkpt>
      <trkpt lat="44.78451" lon="5.68187">
        <ele>681</ele>
        <time>2017-05-03T17:39:37Z</time>
      </trkpt>
      <trkpt lat="44.78439" lon="5.68188">
        <ele>682</ele>
        <time>2017-05-03T17:39:50Z</time>
      </trkpt>
      <trkpt lat="44.78432" lon="5.68181">
        <ele>683</ele>
        <time>2017-05-03T17:40:05Z</time>
      </trkpt>
      <trkpt lat="44.78431" lon="5.68167">
        <ele>684</ele>
        <time>2017-05-03T17:40:10Z</time>
      </trkpt>
      <trkpt lat="44.78435" lon="5.68157">
        <ele>689</ele>
        <time>2017-05-03T17:40:13Z</time>
      </trkpt>
      <trkpt lat="44.78457" lon="5.68145">
        <ele>689</ele>
        <time>2017-05-03T17:40:23Z</time>
      </trkpt>
      <trkpt lat="44.78475" lon="5.68133">
        <ele>689</ele>
        <time>2017-05-03T17:40:39Z</time>
      </trkpt>
      <trkpt lat="44.78498" lon="5.68114">
        <ele>691</ele>
        <time>2017-05-03T17:40:52Z</time>
      </trkpt>
      <trkpt lat="44.78503" lon="5.68104">
        <ele>689</ele>
        <time>2017-05-03T17:41:09Z</time>
      </trkpt>
      <trkpt lat="44.78502" lon="5.68095">
        <ele>692</ele>
        <time>2017-05-03T17:41:22Z</time>
      </trkpt>
      <trkpt lat="44.78496" lon="5.68087">
        <ele>696</ele>
        <time>2017-05-03T17:41:37Z</time>
      </trkpt>
      <trkpt lat="44.78489" lon="5.68085">
        <ele>695</ele>
        <time>2017-05-03T17:41:46Z</time>
      </trkpt>
      <trkpt lat="44.78479" lon="5.68089">
        <ele>693</ele>
        <time>2017-05-03T17:41:54Z</time>
      </trkpt>
      <trkpt lat="44.78467" lon="5.68098">
        <ele>693</ele>
        <time>2017-05-03T17:42:06Z</time>
      </trkpt>
      <trkpt lat="44.78451" lon="5.68109">
        <ele>692</ele>
        <time>2017-05-03T17:42:08Z</time>
      </trkpt>
      <trkpt lat="44.78437" lon="5.68109">
        <ele>692</ele>
        <time>2017-05-03T17:42:12Z</time>
      </trkpt>
      <trkpt lat="44.78413" lon="5.68101">
        <ele>696</ele>
        <time>2017-05-03T17:42:28Z</time>
      </trkpt>
      <trkpt lat="44.78406" lon="5.68095">
        <ele>697</ele>
        <time>2017-05-03T17:42:42Z</time>
      </trkpt>
      <trkpt lat="44.78402" lon="5.68087">
        <ele>697</ele>
        <time>2017-05-03T17:42:58Z</time>
      </trkpt>
      <trkpt lat="44.78401" lon="5.68071">
        <ele>702</ele>
        <time>2017-05-03T17:43:08Z</time>
      </trkpt>
      <trkpt lat="44.78404" lon="5.68062">
        <ele>703</ele>
        <time>2017-05-03T17:43:14Z</time>
      </trkpt>
      <trkpt lat="44.78411" lon="5.68051">
        <ele>704</ele>
        <time>2017-05-03T17:43:16Z</time>
      </trkpt>
      <trkpt lat="44.78437" lon="5.68038">
        <ele>705</ele>
        <time>2017-05-03T17:43:20Z</time>
      </trkpt>
      <trkpt lat="44.78449" lon="5.68034">
        <ele>705</ele>
        <time>2017-05-03T17:43:34Z</time>
      </trkpt>
      <trkpt lat="44.78455" lon="5.68028">
        <ele>706</ele>
        <time>2017-05-03T17:43:49Z</time>
      </trkpt>
      <trkpt lat="44.78485" lon="5.68021">
        <ele>707</ele>
        <time>2017-05-03T17:43:53Z</time>
      </trkpt>
      <trkpt lat="44.78497" lon="5.68022">
        <ele>708</ele>
        <time>2017-05-03T17:44:07Z</time>
      </trkpt>
      <trkpt lat="44.78506" lon="5.68026">
        <ele>705</ele>
        <time>2017-05-03T17:44:12Z</time>
      </trkpt>
      <trkpt lat="44.78522" lon="5.68038">
        <ele>702</ele>
        <time>2017-05-03T17:44:31Z</time>
      </trkpt>
      <trkpt lat="44.78538" lon="5.68044">
        <ele>700</ele>
        <time>2017-05-03T17:44:48Z</time>
      </trkpt>
      <trkpt lat="44.7855" lon="5.6804">
        <ele>700</ele>
        <time>2017-05-03T17:45:02Z</time>
      </trkpt>
      <trkpt lat="44.78594" lon="5.68013">
        <ele>700</ele>
        <time>2017-05-03T17:45:11Z</time>
      </trkpt>
      <trkpt lat="44.78633" lon="5.67987">
        <ele>707</ele>
        <time>2017-05-03T17:45:25Z</time>
      </trkpt>
      <trkpt lat="44.78679" lon="5.67952">
        <ele>701</ele>
        <time>2017-05-03T17:45:41Z</time>
      </trkpt>
      <trkpt lat="44.78693" lon="5.6793">
        <ele>702</ele>
        <time>2017-05-03T17:45:50Z</time>
      </trkpt>
      <trkpt lat="44.78698" lon="5.67908">
        <ele>707</ele>
        <time>2017-05-03T17:46:09Z</time>
      </trkpt>
      <trkpt lat="44.78702" lon="5.67862">
        <ele>707</ele>
        <time>2017-05-03T17:46:27Z</time>
      </trkpt>
      <trkpt lat="44.78712" lon="5.67829">
        <ele>709</ele>
        <time>2017-05-03T17:46:42Z</time>
      </trkpt>
      <trkpt lat="44.7873" lon="5.67793">
        <ele>709</ele>
        <time>2017-05-03T17:46:49Z</time>
      </trkpt>
      <trkpt lat="44.78736" lon="5.67779">
        <ele>709</ele>
        <time>2017-05-03T17:47:05Z</time>
      </trkpt>
      <trkpt lat="44.7874" lon="5.67765">
        <ele>709</ele>
        <time>2017-05-03T17:47:09Z</time>
      </trkpt>
      <trkpt lat="44.7874" lon="5.67749">
        <ele>710</ele>
        <time>2017-05-03T17:47:18Z</time>
      </trkpt>
      <trkpt lat="44.78735" lon="5.67734">
        <ele>711</ele>
        <time>2017-05-03T17:47:31Z</time>
      </trkpt>
      <trkpt lat="44.78719" lon="5.67709">
        <ele>713</ele>
        <time>2017-05-03T17:47:46Z</time>
      </trkpt>
      <trkpt lat="44.78711" lon="5.67685">
        <ele>713</ele>
        <time>2017-05-03T17:47:57Z</time>
      </trkpt>
      <trkpt lat="44.78713" lon="5.67663">
        <ele>715</ele>
        <time>2017-05-03T17:48:00Z</time>
      </trkpt>
      <trkpt lat="44.78716" lon="5.67653">
        <ele>715</ele>
        <time>2017-05-03T17:48:05Z</time>
      </trkpt>
      <trkpt lat="44.78723" lon="5.67628">
        <ele>716</ele>
        <time>2017-05-03T17:48:20Z</time>
      </trkpt>
      <trkpt lat="44.78724" lon="5.67612">
        <ele>716</ele>
        <time>2017-05-03T17:48:32Z</time>
      </trkpt>
      <trkpt lat="44.78721" lon="5.67572">
        <ele>719</ele>
        <time>2017-05-03T17:48:44Z</time>
      </trkpt>
      <trkpt lat="44.78715" lon="5.67526">
        <ele>721</ele>
        <time>2017-05-03T17:48:55Z</time>
      </trkpt>
      <trkpt lat="44.78704" lon="5.67493">
        <ele>724</ele>
        <time>2017-05-03T17:48:57Z</time>
      </trkpt>
      <trkpt lat="44.78689" lon="5.67454">
        <ele>725</ele>
        <time>2017-05-03T17:49:09Z</time>
      </trkpt>
      <trkpt lat="44.78688" lon="5.67428">
        <ele>726</ele>
        <time>2017-05-03T17:49:22Z</time>
      </trkpt>
      <trkpt lat="44.78698" lon="5.67404">
        <ele>729</ele>
        <time>2017-05-03T17:49:39Z</time>
      </trkpt>
      <trkpt lat="44.78704" lon="5.67397">
        <ele>729</ele>
        <time>2017-05-03T17:49:49Z</time>
      </trkpt>
      <trkpt lat="44.78713" lon="5.67394">
        <ele>729</ele>
        <time>2017-05-03T17:50:01Z</time>
      </trkpt>
      <trkpt lat="44.78728" lon="5.67395">
        <ele>729</ele>
        <time>2017-05-03T17:50:05Z</time>
      </trkpt>
      <trkpt lat="44.78739" lon="5.67402">
        <ele>728</ele>
        <time>2017-05-03T17:50:18Z</time>
      </trkpt>
      <trkpt lat="44.78728" lon="5.67385">
        <ele>729</ele>
        <time>2017-05-03T17:50:26Z</time>
      </trkpt>
      <trkpt lat="44.78696" lon="5.67345">
        <ele>731</ele>
        <time>2017-05-03T17:50:38Z</time>
      </trkpt>
      <trkpt lat="44.78687" lon="5.67323">
        <ele>735</ele>
        <time>2017-05-03T17:50:50Z</time>
      </trkpt>
      <trkpt lat="44.78683" lon="5.67304">
        <ele>736</ele>
        <time>2017-05-03T17:51:08Z</time>
      </trkpt>
      <trkpt lat="44.78676" lon="5.67282">
        <ele>737</ele>
        <time>2017-05-03T17:51:12Z</time>
      </trkpt>
      <trkpt lat="44.78667" lon="5.67235">
        <ele>741</ele>
        <time>2017-05-03T17:51:15Z</time>
      </trkpt>
      <trkpt lat="44.78662" lon="5.67182">
        <ele>743</ele>
        <time>2017-05-03T17:51:26Z</time>
      </trkpt>
      <trkpt lat="44.78664" lon="5.67152">
        <ele>746</ele>
        <time>2017-05-03T17:51:39Z</time>
      </trkpt>
      <trkpt lat="44.7867" lon="5.67123">
        <ele>754</ele>
        <time>2017-05-03T17:51:59Z</time>
      </trkpt>
      <trkpt lat="44.78672" lon="5.67102">
        <ele>756</ele>
        <time>2017-05-03T17:52:11Z</time>
      </trkpt>
      <trkpt lat="44.78678" lon="5.67057">
        <ele>763</ele>
        <time>2017-05-03T17:52:13Z</time>
      </trkpt>
      <trkpt lat="44.78684" lon="5.67022">
        <ele>765</ele>
        <time>2017-05-03T17:52:26Z</time>
      </trkpt>
      <trkpt lat="44.78711" lon="5.66967">
        <ele>771</ele>
        <time>2017-05-03T17:52:28Z</time>
      </trkpt>
      <trkpt lat="44.78721" lon="5.66939">
        <ele>772</ele>
        <time>2017-05-03T17:52:46Z</time>
      </trkpt>
      <trkpt lat="44.78728" lon="5.66897">
        <ele>774</ele>
        <time>2017-05-03T17:53:00Z</time>
      </trkpt>
      <trkpt lat="44.7873" lon="5.66884">
        <ele>774</ele>
        <time>2017-05-03T17:53:18Z</time>
      </trkpt>
      <trkpt lat="44.78736" lon="5.66852">
        <ele>775</ele>
        <time>2017-05-03T17:53:27Z</time>
      </trkpt>
      <trkpt lat="44.7874" lon="5.66839">
        <ele>776</ele>
        <time>2017-05-03T17:53:35Z</time>
      </trkpt>
      <trkpt lat="44.78736" lon="5.66815">
        <ele>776</ele>
        <time>2017-05-03T17:53:53Z</time>
      </trkpt>
      <trkpt lat="44.78731" lon="5.66777">
        <ele>775</ele>
        <time>2017-05-03T17:53:58Z</time>
      </trkpt>
      <trkpt lat="44.78731" lon="5.66745">
        <ele>775</ele>
        <time>2017-05-03T17:54:02Z</time>
      </trkpt>
      <trkpt lat="44.78731" lon="5.66711">
        <ele>776</ele>
        <time>2017-05-03T17:54:07Z</time>
      </trkpt>
      <trkpt lat="44.78732" lon="5.66677">
        <ele>774</ele>
        <time>2017-05-03T17:54:24Z</time>
      </trkpt>
      <trkpt lat="44.78746" lon="5.66625">
        <ele>774</ele>
        <time>2017-05-03T17:54:27Z</time>
      </trkpt>
      <trkpt lat="44.78763" lon="5.66566">
        <ele>767</ele>
        <time>2017-05-03T17:54:41Z</time>
      </trkpt>
      <trkpt lat="44.78781" lon="5.66529">
        <ele>766</ele>
        <time>2017-05-03T17:55:00Z</time>
      </trkpt>
      <trkpt lat="44.78803" lon="5.66505">
        <ele>764</ele>
        <time>2017-05-03T17:55:17Z</time>
      </trkpt>
      <trkpt lat="44.78816" lon="5.66498">
        <ele>765</ele>
        <time>2017-05-03T17:55:23Z</time>
      </trkpt>
      <trkpt lat="44.7883" lon="5.66474">
        <ele>765</ele>
        <time>2017-05-03T17:55:31Z</time>
      </trkpt>
      <trkpt lat="44.78848" lon="5.66453">
        <ele>763</ele>
        <time>2017-05-03T17:55:48Z</time>
      </trkpt>
      <trkpt lat="44.78861" lon="5.66443">
        <ele>763</ele>
        <time>2017-05-03T17:55:55Z</time>
      </trkpt>
      <trkpt lat="44.78872" lon="5.66438">
        <ele>763</ele>
        <time>2017-05-03T17:56:00Z</time>
      </trkpt>
      <trkpt lat="44.78883" lon="5.66434">
        <ele>762</ele>
        <time>2017-05-03T17:56:19Z</time>
      </trkpt>
      <trkpt lat="44.7888" lon="5.66429">
        <ele>762</ele>
        <time>2017-05-03T17:56:24Z</time>
      </trkpt>
      <trkpt lat="44.78878" lon="5.66424">
        <ele>763</ele>
        <time>2017-05-03T17:56:38Z</time>
      </trkpt>
      <trkpt lat="44.78879" lon="5.66412">
        <ele>764</ele>
        <time>2017-05-03T17:56:42Z</time>
      </trkpt>
      <trkpt lat="44.78883" lon="5.66389">
        <ele>764</ele>
        <time>2017-05-03T17:56:56Z</time>
      </trkpt>
      <trkpt lat="44.78903" lon="5.66313">
        <ele>761</ele>
        <time>2017-05-03T17:57:11Z</time>
      </trkpt>
      <trkpt lat="44.78902" lon="5.66277">
        <ele>761</ele>
        <time>2017-05-03T17:57:15Z</time>
      </trkpt>
      <trkpt lat="44.78896" lon="5.66211">
        <ele>761</ele>
        <time>2017-05-03T17:57:23Z</time>
      </trkpt>
      <trkpt lat="44.78895" lon="5.6616">
        <ele>758</ele>
        <time>2017-05-03T17:57:42Z</time>
      </trkpt>
      <trkpt lat="44.78891" lon="5.66104">
        <ele>758</ele>
        <time>2017-05-03T17:58:02Z</time>
      </trkpt>
      <trkpt lat="44.78894" lon="5.66076">
        <ele>756</ele>
        <time>2017-05-03T17:58:15Z</time>
      </trkpt>
      <trkpt lat="44.78899" lon="5.6606">
        <ele>756</ele>
        <time>2017-05-03T17:58:28Z</time>
      </trkpt>
      <trkpt lat="44.7891" lon="5.66033">
        <ele>756</ele>
        <time>2017-05-03T17:58:41Z</time>
      </trkpt>
      <trkpt lat="44.78916" lon="5.66016">
        <ele>756</ele>
        <time>2017-05-03T17:58:49Z</time>
      </trkpt>
      <trkpt lat="44.78918" lon="5.66">
        <ele>755</ele>
        <time>2017-05-03T17:59:09Z</time>
      </trkpt>
      <trkpt lat="44.7892" lon="5.65954">
        <ele>751</ele>
        <time>2017-05-03T17:59:26Z</time>
      </trkpt>
      <trkpt lat="44.78919" lon="5.6592">
        <ele>753</ele>
        <time>2017-05-03T17:59:36Z</time>
      </trkpt>
      <trkpt lat="44.78916" lon="5.65897">
        <ele>755</ele>
        <time>2017-05-03T17:59:54Z</time>
      </trkpt>
      <trkpt lat="44.78921" lon="5.65885">
        <ele>751</ele>
        <time>2017-05-03T18:00:05Z</time>
      </trkpt>
      <trkpt lat="44.78922" lon="5.65871">
        <ele>751</ele>
        <time>2017-05-03T18:00:16Z</time>
      </trkpt>
      <trkpt lat="44.78918" lon="5.65835">
        <ele>753</ele>
        <time>2017-05-03T18:00:28Z</time>
      </trkpt>
      <trkpt lat="44.78916" lon="5.65809">
        <ele>755</ele>
        <time>2017-05-03T18:00:37Z</time>
      </trkpt>
      <trkpt lat="44.78917" lon="5.65788">
        <ele>753</ele>
        <time>2017-05-03T18:00:57Z</time>
      </trkpt>
      <trkpt lat="44.78922" lon="5.65777">
        <ele>754</ele>
        <time>2017-05-03T18:01:11Z</time>
      </trkpt>
      <trkpt lat="44.78931" lon="5.65768">
        <ele>754</ele>
        <time>2017-05-03T18:01:22Z</time>
      </trkpt>
      <trkpt lat="44.78948" lon="5.65767">
        <ele>753</ele>
        <time>2017-05-03T18:01:27Z</time>
      </trkpt>
      <trkpt lat="44.78988" lon="5.65779">
        <ele>752</ele>
        <time>2017-05-03T18:01:44Z</time>
      </trkpt>
      <trkpt lat="44.79036" lon="5.65797">
        <ele>750</ele>
        <time>2017-05-03T18:02:04Z</time>
      </trkpt>
      <trkpt lat="44.79041" lon="5.65797">
        <ele>750</ele>
        <time>2017-05-03T18:02:21Z</time>
      </trkpt>
      <trkpt lat="44.79053" lon="5.65796">
        <ele>750</ele>
        <time>2017-05-03T18:02:24Z</time>
      </trkpt>
      <trkpt lat="44.79066" lon="5.65783">
        <ele>750</ele>
        <time>2017-05-03T18:02:31Z</time>
      </trkpt>
      <trkpt lat="44.79072" lon="5.65766">
        <ele>749</ele>
        <time>2017-05-03T18:02:38Z</time>
      </trkpt>
      <trkpt lat="44.79074" lon="5.65735">
        <ele>750</ele>
        <time>2017-05-03T18:02:43Z</time>
      </trkpt>
      <trkpt lat="44.79068" lon="5.6571">
        <ele>751</ele>
        <time>2017-05-03T18:02:47Z</time>
      </trkpt>
      <trkpt lat="44.79056" lon="5.65684">
        <ele>751</ele>
        <time>2017-05-03T18:03:07Z</time>
      </trkpt>
      <trkpt lat="44.79046" lon="5.6567">
        <ele>752</ele>
        <time>2017-05-03T18:03:26Z</time>
      </trkpt>
      <trkpt lat="44.79046" lon="5.65661">
        <ele>752</ele>
        <time>2017-05-03T18:03:34Z</time>
      </trkpt>
      <trkpt lat="44.79051" lon="5.65648">
        <ele>752</ele>
        <time>2017-05-03T18:03:49Z</time>
      </trkpt>
      <trkpt lat="44.79054" lon="5.65645">
        <ele>752</ele>
        <time>2017-05-03T18:04:06Z</time>
      </trkpt>
      <trkpt lat="44.79068" lon="5.65646">
        <ele>752</ele>
        <time>2017-05-03T18:04:09Z</time>
      </trkpt>
      <trkpt lat="44.79088" lon="5.6565">
        <ele>754</ele>
        <time>2017-05-03T18:04:17Z</time>
      </trkpt>
      <trkpt lat="44.79105" lon="5.6565">
        <ele>756</ele>
        <time>2017-05-03T18:04:24Z</time>
      </trkpt>
      <trkpt lat="44.7912" lon="5.6565">
        <ele>758</ele>
        <time>2017-05-03T18:04:38Z</time>
      </trkpt>
      <trkpt lat="44.79128" lon="5.65652">
        <ele>759</ele>
        <time>2017-05-03T18:04:45Z</time>
      </trkpt>
      <trkpt lat="44.79134" lon="5.65661">
        <ele>759</ele>
        <time>2017-05-03T18:04:55Z</time>
      </trkpt>
      <trkpt lat="44.79141" lon="5.65678">
        <ele>756</ele>
        <time>2017-05-03T18:05:11Z</time>
      </trkpt>
      <trkpt lat="44.79154" lon="5.65698">
        <ele>755</ele>
        <time>2017-05-03T18:05:29Z</time>
      </trkpt>
      <trkpt lat="44.79167" lon="5.6572">
        <ele>764</ele>
        <time>2017-05-03T18:05:40Z</time>
      </trkpt>
      <trkpt lat="44.79175" lon="5.65746">
        <ele>758</ele>
        <time>2017-05-03T18:05:57Z</time>
      </trkpt>
      <trkpt lat="44.79184" lon="5.65769">
        <ele>758</ele>
        <time>2017-05-03T18:06:06Z</time>
      </trkpt>
      <trkpt lat="44.792" lon="5.65794">
        <ele>760</ele>
        <time>2017-05-03T18:06:22Z</time>
      </trkpt>
      <trkpt lat="44.79218" lon="5.6582">
        <ele>762</ele>
        <time>2017-05-03T18:06:25Z</time>
      </trkpt>
      <trkpt lat="44.79261" lon="5.65877">
        <ele>769</ele>
        <time>2017-05-03T18:06:36Z</time>
      </trkpt>
      <trkpt lat="44.79283" lon="5.65906">
        <ele>769</ele>
        <time>2017-05-03T18:06:38Z</time>
      </trkpt>
      <trkpt lat="44.79304" lon="5.65926">
        <ele>765</ele>
        <time>2017-05-03T18:06:50Z</time>
      </trkpt>
      <trkpt lat="44.79316" lon="5.65937">
        <ele>766</ele>
        <time>2017-05-03T18:07:08Z</time>
      </trkpt>
      <trkpt lat="44.79326" lon="5.65943">
        <ele>766</ele>
        <time>2017-05-03T18:07:21Z</time>
      </trkpt>
      <trkpt lat="44.79334" lon="5.65948">
        <ele>777</ele>
        <time>2017-05-03T18:07:27Z</time>
      </trkpt>
      <trkpt lat="44.79346" lon="5.65952">
        <ele>776</ele>
        <time>2017-05-03T18:07:36Z</time>
      </trkpt>
      <trkpt lat="44.79359" lon="5.65953">
        <ele>777</ele>
        <time>2017-05-03T18:07:51Z</time>
      </trkpt>
      <trkpt lat="44.79381" lon="5.65964">
        <ele>778</ele>
        <time>2017-05-03T18:08:09Z</time>
      </trkpt>
      <trkpt lat="44.79395" lon="5.65967">
        <ele>778</ele>
        <time>2017-05-03T18:08:29Z</time>
      </trkpt>
      <trkpt lat="44.79416" lon="5.65957">
        <ele>780</ele>
        <time>2017-05-03T18:08:37Z</time>
      </trkpt>
      <trkpt lat="44.79447" lon="5.65938">
        <ele>785</ele>
        <time>2017-05-03T18:08:46Z</time>
      </trkpt>
      <trkpt lat="44.79443" lon="5.65925">
        <ele>785</ele>
        <time>2017-05-03T18:09:02Z</time>
      </trkpt>
      <trkpt lat="44.79423" lon="5.65895">
        <ele>788</ele>
        <time>2017-05-03T18:09:22Z</time>
      </trkpt>
      <trkpt lat="44.79442" lon="5.65869">
        <ele>788</ele>
        <time>2017-05-03T18:09:29Z</time>
      </trkpt>
      <trkpt lat="44.79454" lon="5.65851">
        <ele>788</ele>
        <time>2017-05-03T18:09:32Z</time>
      </trkpt>
      <trkpt lat="44.79468" lon="5.65817">
        <ele>788</ele>
        <time>2017-05-03T18:09:38Z</time>
      </trkpt>
      <trkpt lat="44.79475" lon="5.65784">
        <ele>788</ele>
        <time>2017-05-03T18:09:54Z</time>
      </trkpt>
      <trkpt lat="44.79479" lon="5.65754">
        <ele>787</ele>
        <time>2017-05-03T18:09:56Z</time>
      </trkpt>
      <trkpt lat="44.79478" lon="5.65739">
        <ele>785</ele>
        <time>2017-05-03T18:10:11Z</time>
      </trkpt>
      <trkpt lat="44.79482" lon="5.65732">
        <ele>785</ele>
        <time>2017-05-03T18:10:24Z</time>
      </trkpt>
      <trkpt lat="44.79489" lon="5.6569">
        <ele>782</ele>
        <time>2017-05-03T18:10:44Z</time>
      </trkpt>
      <trkpt lat="44.79491" lon="5.65646">
        <ele>778</ele>
        <time>2017-05-03T18:11:03Z</time>
      </trkpt>
      <trkpt lat="44.79494" lon="5.65621">
        <ele>778</ele>
        <time>2017-05-03T18:11:06Z</time>
      </trkpt>
      <trkpt lat="44.79504" lon="5.65585">
        <ele>774</ele>
        <time>2017-05-03T18:11:17Z</time>
      </trkpt>
      <trkpt lat="44.79523" lon="5.65531">
        <ele>770</ele>
        <time>2017-05-03T18:11:23Z</time>
      </trkpt>
      <trkpt lat="44.79536" lon="5.6549">
        <ele>769</ele>
        <time>2017-05-03T18:11:33Z</time>
      </trkpt>
      <trkpt lat="44.79546" lon="5.65447">
        <ele>768</ele>
        <time>2017-05-03T18:11:51Z</time>
      </trkpt>
      <trkpt lat="44.79569" lon="5.65371">
        <ele>767</ele>
        <time>2017-05-03T18:11:57Z</time>
      </trkpt>
      <trkpt lat="44.79578" lon="5.65349">
        <ele>767</ele>
        <time>2017-05-03T18:12:15Z</time>
      </trkpt>
      <trkpt lat="44.79583" lon="5.65342">
        <ele>767</ele>
        <time>2017-05-03T18:12:25Z</time>
      </trkpt>
      <trkpt lat="44.796" lon="5.65332">
        <ele>763</ele>
        <time>2017-05-03T18:12:45Z</time>
      </trkpt>
      <trkpt lat="44.79672" lon="5.65284">
        <ele>752</ele>
        <time>2017-05-03T18:12:51Z</time>
      </trkpt>
      <trkpt lat="44.7971" lon="5.65259">
        <ele>750</ele>
        <time>2017-05-03T18:13:10Z</time>
      </trkpt>
      <trkpt lat="44.7975" lon="5.65237">
        <ele>744</ele>
        <time>2017-05-03T18:13:23Z</time>
      </trkpt>
      <trkpt lat="44.79794" lon="5.6521">
        <ele>736</ele>
        <time>2017-05-03T18:13:42Z</time>
      </trkpt>
      <trkpt lat="44.79809" lon="5.65206">
        <ele>735</ele>
        <time>2017-05-03T18:13:58Z</time>
      </trkpt>
      <trkpt lat="44.79819" lon="5.65199">
        <ele>734</ele>
        <time>2017-05-03T18:14:16Z</time>
      </trkpt>
      <trkpt lat="44.7983" lon="5.652">
        <ele>733</ele>
        <time>2017-05-03T18:14:22Z</time>
      </trkpt>
      <trkpt lat="44.79839" lon="5.65202">
        <ele>728</ele>
        <time>2017-05-03T18:14:35Z</time>
      </trkpt>
      <trkpt lat="44.7985" lon="5.65206">
        <ele>728</ele>
        <time>2017-05-03T18:14:40Z</time>
      </trkpt>
      <trkpt lat="44.79859" lon="5.65207">
        <ele>728</ele>
        <time>2017-05-03T18:15:00Z</time>
      </trkpt>
      <trkpt lat="44.79872" lon="5.65203">
        <ele>728</ele>
        <time>2017-05-03T18:15:09Z</time>
      </trkpt>
      <trkpt lat="44.79876" lon="5.65194">
        <ele>727</ele>
        <time>2017-05-03T18:15:27Z</time>
      </trkpt>
      <trkpt lat="44.79876" lon="5.65182">
        <ele>727</ele>
        <time>2017-05-03T18:15:39Z</time>
      </trkpt>
      <trkpt lat="44.79878" lon="5.65175">
        <ele>727</ele>
        <time>2017-05-03T18:15:44Z</time>
      </trkpt>
      <trkpt lat="44.79882" lon="5.65171">
        <ele>726</ele>
        <time>2017-05-03T18:15:57Z</time>
      </trkpt>
      <trkpt lat="44.7989" lon="5.6517">
        <ele>726</ele>
        <time>2017-05-03T18:16:08Z</time>
      </trkpt>
      <trkpt lat="44.79899" lon="5.65162">
        <ele>724</ele>
        <time>2017-05-03T18:16:23Z</time>
      </trkpt>
      <trkpt lat="44.79907" lon="5.65156">
        <ele>724</ele>
        <time>2017-05-03T18:16:28Z</time>
      </trkpt>
      <trkpt lat="44.79918" lon="5.65152">
        <ele>728</ele>
        <time>2017-05-03T18:16:46Z</time>
      </trkpt>
      <trkpt lat="44.79927" lon="5.65145">
        <ele>730</ele>
        <time>2017-05-03T18:17:02Z</time>
      </trkpt>
      <trkpt lat="44.79939" lon="5.65128">
        <ele>733</ele>
        <time>2017-05-03T18:17:04Z</time>
      </trkpt>
      <trkpt lat="44.79941" lon="5.65111">
        <ele>734</ele>
        <time>2017-05-03T18:17:13Z</time>
      </trkpt>
      <trkpt lat="44.79939" lon="5.65099">
        <ele>734</ele>
        <time>2017-05-03T18:17:29Z</time>
      </trkpt>
      <trkpt lat="44.79939" lon="5.65084">
        <ele>734</ele>
        <time>2017-05-03T18:17:37Z</time>
      </trkpt>
      <trkpt lat="44.79945" lon="5.65048">
        <ele>743</ele>
        <time>2017-05-03T18:17:42Z</time>
      </trkpt>
      <trkpt lat="44.79955" lon="5.64999">
        <ele>750</ele>
        <time>2017-05-03T18:17:47Z</time>
      </trkpt>
      <trkpt lat="44.79963" lon="5.64936">
        <ele>753</ele>
        <time>2017-05-03T18:17:57Z</time>
      </trkpt>
      <trkpt lat="44.7997" lon="5.64855">
        <ele>760</ele>
        <time>2017-05-03T18:18:04Z</time>
      </trkpt>
      <trkpt lat="44.79972" lon="5.64733">
        <ele>775</ele>
        <time>2017-05-03T18:18:21Z</time>
      </trkpt>
      <trkpt lat="44.79972" lon="5.64664">
        <ele>781</ele>
        <time>2017-05-03T18:18:33Z</time>
      </trkpt>
      <trkpt lat="44.79974" lon="5.64657">
        <ele>781</ele>
        <time>2017-05-03T18:18:51Z</time>
      </trkpt>
      <trkpt lat="44.79984" lon="5.64646">
        <ele>781</ele>
        <time>2017-05-03T18:18:54Z</time>
      </trkpt>
      <trkpt lat="44.79996" lon="5.64634">
        <ele>782</ele>
        <time>2017-05-03T18:19:07Z</time>
      </trkpt>
      <trkpt lat="44.79989" lon="5.64598">
        <ele>782</ele>
        <time>2017-05-03T18:19:14Z</time>
      </trkpt>
      <trkpt lat="44.79997" lon="5.64571">
        <ele>785</ele>
        <time>2017-05-03T18:19:33Z</time>
      </trkpt>
      <trkpt lat="44.79999" lon="5.6455">
        <ele>786</ele>
        <time>2017-05-03T18:19:37Z</time>
      </trkpt>
      <trkpt lat="44.79992" lon="5.64516">
        <ele>786</ele>
        <time>2017-05-03T18:19:47Z</time>
      </trkpt>
      <trkpt lat="44.79972" lon="5.644">
        <ele>789</ele>
        <time>2017-05-03T18:20:06Z</time>
      </trkpt>
      <trkpt lat="44.79956" lon="5.64321">
        <ele>790</ele>
        <time>2017-05-03T18:20:19Z</time>
      </trkpt>
      <trkpt lat="44.7994" lon="5.6427">
        <ele>790</ele>
        <time>2017-05-03T18:20:31Z</time>
      </trkpt>
      <trkpt lat="44.79907" lon="5.64177">
        <ele>792</ele>
        <time>2017-05-03T18:20:35Z</time>
      </trkpt>
      <trkpt lat="44.79892" lon="5.6414">
        <ele>796</ele>
        <time>2017-05-03T18:20:46Z</time>
      </trkpt>
      <trkpt lat="44.79875" lon="5.64107">
        <ele>798</ele>
        <time>2017-05-03T18:20:50Z</time>
      </trkpt>
      <trkpt lat="44.79857" lon="5.64087">
        <ele>799</ele>
        <time>2017-05-03T18:21:05Z</time>
      </trkpt>
      <trkpt lat="44.79849" lon="5.64082">
        <ele>803</ele>
        <time>2017-05-03T18:21:18Z</time>
      </trkpt>
      <trkpt lat="44.79844" lon="5.64069">
        <ele>803</ele>
        <time>2017-05-03T18:21:35Z</time>
      </trkpt>
      <trkpt lat="44.79836" lon="5.64062">
        <ele>804</ele>
        <time>2017-05-03T18:21:44Z</time>
      </trkpt>
      <trkpt lat="44.79809" lon="5.64044">
        <ele>809</ele>
        <time>2017-05-03T18:21:51Z</time>
      </trkpt>
      <trkpt lat="44.79787" lon="5.64034">
        <ele>811</ele>
        <time>2017-05-03T18:21:55Z</time>
      </trkpt>
      <trkpt lat="44.79765" lon="5.64022">
        <ele>813</ele>
        <time>2017-05-03T18:21:59Z</time>
      </trkpt>
      <trkpt lat="44.79742" lon="5.64014">
        <ele>817</ele>
        <time>2017-05-03T18:22:06Z</time>
      </trkpt>
      <trkpt lat="44.79737" lon="5.6401">
        <ele>817</ele>
        <time>2017-05-03T18:22:08Z</time>
      </trkpt>
      <trkpt lat="44.79735" lon="5.64005">
        <ele>817</ele>
        <time>2017-05-03T18:22:28Z</time>
      </trkpt>
      <trkpt lat="44.79706" lon="5.63931">
        <ele>825</ele>
        <time>2017-05-03T18:22:48Z</time>
      </trkpt>
      <trkpt lat="44.79699" lon="5.63867">
        <ele>830</ele>
        <time>2017-05-03T18:23:08Z</time>
      </trkpt>
      <trkpt lat="44.79696" lon="5.63804">
        <ele>834</ele>
        <time>2017-05-03T18:23:15Z</time>
      </trkpt>
      <trkpt lat="44.79694" lon="5.63786">
        <ele>835</ele>
        <time>2017-05-03T18:23:30Z</time>
      </trkpt>
      <trkpt lat="44.79692" lon="5.63778">
        <ele>835</ele>
        <time>2017-05-03T18:23:48Z</time>
      </trkpt>
      <trkpt lat="44.79688" lon="5.63771">
        <ele>836</ele>
        <time>2017-05-03T18:23:58Z</time>
      </trkpt>
      <trkpt lat="44.79686" lon="5.63778">
        <ele>836</ele>
        <time>2017-05-03T18:24:18Z</time>
      </trkpt>
      <trkpt lat="44.7968" lon="5.63788">
        <ele>836</ele>
        <time>2017-05-03T18:24:24Z</time>
      </trkpt>
      <trkpt lat="44.79677" lon="5.63783">
        <ele>836</ele>
        <time>2017-05-03T18:24:44Z</time>
      </trkpt>
      <trkpt lat="44.79653" lon="5.63699">
        <ele>845</ele>
        <time>2017-05-03T18:24:48Z</time>
      </trkpt>
      <trkpt lat="44.7964" lon="5.63636">
        <ele>848</ele>
        <time>2017-05-03T18:24:57Z</time>
      </trkpt>
      <trkpt lat="44.79629" lon="5.63579">
        <ele>851</ele>
        <time>2017-05-03T18:25:15Z</time>
      </trkpt>
      <trkpt lat="44.79634" lon="5.63531">
        <ele>853</ele>
        <time>2017-05-03T18:25:24Z</time>
      </trkpt>
      <trkpt lat="44.79636" lon="5.63499">
        <ele>857</ele>
        <time>2017-05-03T18:25:30Z</time>
      </trkpt>
      <trkpt lat="44.79629" lon="5.63459">
        <ele>857</ele>
        <time>2017-05-03T18:25:42Z</time>
      </trkpt>
      <trkpt lat="44.79628" lon="5.63445">
        <ele>858</ele>
        <time>2017-05-03T18:25:51Z</time>
      </trkpt>
      <trkpt lat="44.79631" lon="5.63422">
        <ele>858</ele>
        <time>2017-05-03T18:25:56Z</time>
      </trkpt>
      <trkpt lat="44.79636" lon="5.63384">
        <ele>862</ele>
        <time>2017-05-03T18:26:09Z</time>
      </trkpt>
      <trkpt lat="44.79641" lon="5.63344">
        <ele>864</ele>
        <time>2017-05-03T18:26:14Z</time>
      </trkpt>
      <trkpt lat="44.79651" lon="5.63282">
        <ele>872</ele>
        <time>2017-05-03T18:26:34Z</time>
      </trkpt>
      <trkpt lat="44.79652" lon="5.63267">
        <ele>874</ele>
        <time>2017-05-03T18:26:49Z</time>
      </trkpt>
      <trkpt lat="44.79647" lon="5.63239">
        <ele>881</ele>
        <time>2017-05-03T18:26:58Z</time>
      </trkpt>
      <trkpt lat="44.79644" lon="5.63218">
        <ele>882</ele>
        <time>2017-05-03T18:27:07Z</time>
      </trkpt>
      <trkpt lat="44.79641" lon="5.6321">
        <ele>883</ele>
        <time>2017-05-03T18:27:15Z</time>
      </trkpt>
      <trkpt lat="44.7964" lon="5.63202">
        <ele>884</ele>
        <time>2017-05-03T18:27:27Z</time>
      </trkpt>
      <trkpt lat="44.79643" lon="5.63185">
        <ele>885</ele>
        <time>2017-05-03T18:27:37Z</time>
      </trkpt>
      <trkpt lat="44.79647" lon="5.63165">
        <ele>894</ele>
        <time>2017-05-03T18:27:55Z</time>
      </trkpt>
      <trkpt lat="44.79647" lon="5.63143">
        <ele>895</ele>
        <time>2017-05-03T18:28:05Z</time>
      </trkpt>
      <trkpt lat="44.79643" lon="5.63106">
        <ele>898</ele>
        <time>2017-05-03T18:28:18Z</time>
      </trkpt>
      <trkpt lat="44.79638" lon="5.63073">
        <ele>909</ele>
        <time>2017-05-03T18:28:23Z</time>
      </trkpt>
      <trkpt lat="44.79635" lon="5.63061">
        <ele>910</ele>
        <time>2017-05-03T18:28:30Z</time>
      </trkpt>
      <trkpt lat="44.7963" lon="5.63051">
        <ele>911</ele>
        <time>2017-05-03T18:28:33Z</time>
      </trkpt>
      <trkpt lat="44.79621" lon="5.63041">
        <ele>912</ele>
        <time>2017-05-03T18:28:51Z</time>
      </trkpt>
      <trkpt lat="44.79605" lon="5.63029">
        <ele>913</ele>
        <time>2017-05-03T18:29:11Z</time>
      </trkpt>
      <trkpt lat="44.79584" lon="5.63013">
        <ele>916</ele>
        <time>2017-05-03T18:29:23Z</time>
      </trkpt>
      <trkpt lat="44.79575" lon="5.63002">
        <ele>917</ele>
        <time>2017-05-03T18:29:30Z</time>
      </trkpt>
      <trkpt lat="44.79567" lon="5.62988">
        <ele>923</ele>
        <time>2017-05-03T18:29:43Z</time>
      </trkpt>
      <trkpt lat="44.79554" lon="5.62959">
        <ele>925</ele>
        <time>2017-05-03T18:29:55Z</time>
      </trkpt>
      <trkpt lat="44.79545" lon="5.62932">
        <ele>927</ele>
        <time>2017-05-03T18:30:07Z</time>
      </trkpt>
      <trkpt lat="44.79538" lon="5.62899">
        <ele>936</ele>
        <time>2017-05-03T18:30:13Z</time>
      </trkpt>
      <trkpt lat="44.79535" lon="5.62868">
        <ele>938</ele>
        <time>2017-05-03T18:30:19Z</time>
      </trkpt>
      <trkpt lat="44.79533" lon="5.62854">
        <ele>938</ele>
        <time>2017-05-03T18:30:35Z</time>
      </trkpt>
      <trkpt lat="44.79528" lon="5.62843">
        <ele>939</ele>
        <time>2017-05-03T18:30:39Z</time>
      </trkpt>
      <trkpt lat="44.79523" lon="5.6283">
        <ele>946</ele>
        <time>2017-05-03T18:30:56Z</time>
      </trkpt>
      <trkpt lat="44.79505" lon="5.62832">
        <ele>944</ele>
        <time>2017-05-03T18:31:04Z</time>
      </trkpt>
      <trkpt lat="44.79499" lon="5.62831">
        <ele>943</ele>
        <time>2017-05-03T18:31:13Z</time>
      </trkpt>
      <trkpt lat="44.79496" lon="5.62827">
        <ele>944</ele>
        <time>2017-05-03T18:31:16Z</time>
      </trkpt>
      <trkpt lat="44.79495" lon="5.62811">
        <ele>945</ele>
        <time>2017-05-03T18:31:22Z</time>
      </trkpt>
      <trkpt lat="44.79496" lon="5.62807">
        <ele>945</ele>
        <time>2017-05-03T18:31:40Z</time>
      </trkpt>
      <trkpt lat="44.795" lon="5.62805">
        <ele>947</ele>
        <time>2017-05-03T18:31:59Z</time>
      </trkpt>
      <trkpt lat="44.7951" lon="5.62801">
        <ele>947</ele>
        <time>2017-05-03T18:32:19Z</time>
      </trkpt>
      <trkpt lat="44.79518" lon="5.62793">
        <ele>948</ele>
        <time>2017-05-03T18:32:28Z</time>
      </trkpt>
      <trkpt lat="44.79527" lon="5.62759">
        <ele>950</ele>
        <time>2017-05-03T18:32:35Z</time>
      </trkpt>
      <trkpt lat="44.79537" lon="5.62722">
        <ele>959</ele>
        <time>2017-05-03T18:32:46Z</time>
      </trkpt>
      <trkpt lat="44.79541" lon="5.62713">
        <ele>959</ele>
        <time>2017-05-03T18:32:57Z</time>
      </trkpt>
      <trkpt lat="44.79536" lon="5.62703">
        <ele>960</ele>
        <time>2017-05-03T18:33:17Z</time>
      </trkpt>
      <trkpt lat="44.79532" lon="5.62691">
        <ele>961</ele>
        <time>2017-05-03T18:33:30Z</time>
      </trkpt>
      <trkpt lat="44.79526" lon="5.62679">
        <ele>961</ele>
        <time>2017-05-03T18:33:38Z</time>
      </trkpt>
      <trkpt lat="44.79522" lon="5.6267">
        <ele>962</ele>
        <time>2017-05-03T18:33:46Z</time>
      </trkpt>
      <trkpt lat="44.79515" lon="5.62665">
        <ele>968</ele>
        <time>2017-05-03T18:34:06Z</time>
      </trkpt>
      <trkpt lat="44.79497" lon="5.62658">
        <ele>967</ele>
        <time>2017-05-03T18:34:10Z</time>
      </trkpt>
      <trkpt lat="44.79487" lon="5.62645">
        <ele>971</ele>
        <time>2017-05-03T18:34:19Z</time>
      </trkpt>
      <trkpt lat="44.79481" lon="5.62638">
        <ele>973</ele>
        <time>2017-05-03T18:34:33Z</time>
      </trkpt>
      <trkpt lat="44.79475" lon="5.62637">
        <ele>973</ele>
        <time>2017-05-03T18:34:43Z</time>
      </trkpt>
      <trkpt lat="44.79455" lon="5.62636">
        <ele>974</ele>
        <time>2017-05-03T18:34:59Z</time>
      </trkpt>
      <trkpt lat="44.79437" lon="5.62634">
        <ele>975</ele>
        <time>2017-05-03T18:35:10Z</time>
      </trkpt>
      <trkpt lat="44.7942" lon="5.62629">
        <ele>976</ele>
        <time>2017-05-03T18:35:22Z</time>
      </trkpt>
      <trkpt lat="44.79412" lon="5.62626">
        <ele>979</ele>
        <time>2017-05-03T18:35:35Z</time>
      </trkpt>
      <trkpt lat="44.79405" lon="5.6262">
        <ele>979</ele>
        <time>2017-05-03T18:35:44Z</time>
      </trkpt>
      <trkpt lat="44.7939" lon="5.62605">
        <ele>980</ele>
        <time>2017-05-03T18:35:55Z</time>
      </trkpt>
      <trkpt lat="44.79376" lon="5.62588">
        <ele>981</ele>
        <time>2017-05-03T18:35:58Z</time>
      </trkpt>
      <trkpt lat="44.79366" lon="5.62572">
        <ele>989</ele>
        <time>2017-05-03T18:36:18Z</time>
      </trkpt>
      <trkpt lat="44.79356" lon="5.62559">
        <ele>990</ele>
        <time>2017-05-03T18:36:23Z</time>
      </trkpt>
      <trkpt lat="44.79353" lon="5.62558">
        <ele>990</ele>
        <time>2017-05-03T18:36:38Z</time>
      </trkpt>
    </trkseg>
  </trk>
</gpx>